PWSweather.com
Personal Weather Stations
Station Observations
WOODBURYWX
Lighthouse Rd, Woodbury, Woodbury, CT 06798

Lighthouse Rd, WoodburyWoodbury, CT 06798

Lat: 41.553333, Lon: -73.224167

Elevation: 437

Station Type: Ambient Weather WS-1090

Latest ConditionsUpdated 9:07:00 AM EST Saturday, Nov 22, 2014
Currently Today's Max Today's Min Today's Average
Temperature 25.9°F-3.4°C 26.4°F-3.1°C 16.7°F-8.5°C 20.3°F-6.5°C
Dew Point 11.1°F-11.6°C 14.1°F-9.9°C 6.4°F-14.2°C 8.8°F-12.9°C
Winds 3.1 mph SE5.0 kmh SE 3.1 mph SE5.0 kmh SE - 0.2 mph 0.3 kmh
Wind Gusts 3.2 mph5.1 kmh 3.2 mph5.1 kmh - -
Humidity 53% 72% 49% 61%
Pressure 30.39 in1029.1 mb 30.50 in1032.8 mb 30.39 in1029.1 mb -
Hour Temp Dew Point Humidity Winds Wind Gusts Pressure Precip Precip Rate Daily Precip Total
09:07 AM 25.9°F-3.4°C 11.1°F-11.6°C 53% 3.1 mph SE5.0 kmh SE 3.2 mph5.1 kmh 30.39 in1029.1 mb 0.00 in0.0 mm 0.00 in/hr0.0 mm/hr 0.00 in0.0 mm
09:06 AM 25.9°F-3.4°C 11.1°F-11.6°C 53% 3.0 mph SE4.8 kmh SE 3.2 mph5.1 kmh 30.41 in1029.8 mb 0.00 in0.0 mm 0.00 in/hr0.0 mm/hr 0.00 in0.0 mm
09:05 AM 25.9°F-3.4°C 11.1°F-11.6°C 53% 2.8 mph SE4.5 kmh SE 3.2 mph5.1 kmh 30.39 in1029.1 mb 0.00 in0.0 mm 0.00 in/hr0.0 mm/hr 0.00 in0.0 mm
09:04 AM 25.9°F-3.4°C 11.1°F-11.6°C 53% 2.6 mph SE4.2 kmh SE 3.2 mph5.1 kmh 30.40 in1029.5 mb 0.00 in0.0 mm 0.00 in/hr0.0 mm/hr 0.00 in0.0 mm
09:03 AM 25.9°F-3.4°C 11.1°F-11.6°C 53% 2.5 mph SE4.0 kmh SE 3.2 mph5.1 kmh 30.41 in1029.8 mb 0.00 in0.0 mm 0.00 in/hr0.0 mm/hr 0.00 in0.0 mm
09:02 AM 25.9°F-3.4°C 11.1°F-11.6°C 53% 2.4 mph ESE3.9 kmh ESE 3.2 mph5.1 kmh 30.42 in1030.1 mb 0.00 in0.0 mm 0.00 in/hr0.0 mm/hr 0.00 in0.0 mm
09:01 AM 25.9°F-3.4°C 11.1°F-11.6°C 53% 2.1 mph ESE3.4 kmh ESE 3.2 mph5.1 kmh 30.42 in1030.1 mb 0.00 in0.0 mm 0.00 in/hr0.0 mm/hr 0.00 in0.0 mm
09:00 AM 25.9°F-3.4°C 11.1°F-11.6°C 53% 1.9 mph E3.1 kmh E 3.2 mph5.1 kmh 30.42 in1030.1 mb 0.00 in0.0 mm 0.00 in/hr0.0 mm/hr 0.00 in0.0 mm
08:59 AM 26.1°F-3.3°C 11.3°F-11.5°C 53% 1.7 mph E2.7 kmh E 3.2 mph5.1 kmh 30.42 in1030.1 mb 0.00 in0.0 mm 0.00 in/hr0.0 mm/hr 0.00 in0.0 mm
08:58 AM 26.4°F-3.1°C 11.7°F-11.3°C 53% 1.5 mph E2.4 kmh E 3.2 mph5.1 kmh 30.42 in1030.1 mb 0.00 in0.0 mm 0.00 in/hr0.0 mm/hr 0.00 in0.0 mm
08:57 AM 26.2°F-3.2°C 11.9°F-11.2°C 54% 1.5 mph E2.4 kmh E 2.4 mph3.9 kmh 30.41 in1029.8 mb 0.00 in0.0 mm 0.00 in/hr0.0 mm/hr 0.00 in0.0 mm
08:56 AM 26.2°F-3.2°C 11.9°F-11.2°C 54% 1.5 mph E2.4 kmh E 2.4 mph3.9 kmh 30.42 in1030.1 mb 0.00 in0.0 mm 0.00 in/hr0.0 mm/hr 0.00 in0.0 mm
08:55 AM 25.9°F-3.4°C 11.6°F-11.3°C 54% 1.5 mph E2.4 kmh E 2.4 mph3.9 kmh 30.42 in1030.1 mb 0.00 in0.0 mm 0.00 in/hr0.0 mm/hr 0.00 in0.0 mm
08:54 AM 25.5°F-3.6°C 11.2°F-11.6°C 54% 1.5 mph E2.4 kmh E 2.4 mph3.9 kmh 30.42 in1030.1 mb 0.00 in0.0 mm 0.00 in/hr0.0 mm/hr 0.00 in0.0 mm
08:53 AM 25.5°F-3.6°C 11.6°F-11.3°C 55% 1.3 mph E2.1 kmh E 1.6 mph2.6 kmh 30.42 in1030.1 mb 0.00 in0.0 mm 0.00 in/hr0.0 mm/hr 0.00 in0.0 mm
08:52 AM 25.7°F-3.5°C 11.8°F-11.2°C 55% 1.3 mph E2.1 kmh E 1.6 mph2.6 kmh 30.42 in1030.1 mb 0.00 in0.0 mm 0.00 in/hr0.0 mm/hr 0.00 in0.0 mm
08:51 AM 25.5°F-3.6°C 12.0°F-11.1°C 56% 1.3 mph E2.1 kmh E 1.6 mph2.6 kmh 30.42 in1030.1 mb 0.00 in0.0 mm 0.00 in/hr0.0 mm/hr 0.00 in0.0 mm
08:50 AM 25.7°F-3.5°C 12.2°F-11.0°C 56% 1.3 mph E2.1 kmh E 1.6 mph2.6 kmh 30.42 in1030.1 mb 0.00 in0.0 mm 0.00 in/hr0.0 mm/hr 0.00 in0.0 mm
08:49 AM 25.2°F-3.8°C 11.7°F-11.3°C 56% 1.2 mph E1.9 kmh E 1.6 mph2.6 kmh 30.42 in1030.1 mb 0.00 in0.0 mm 0.00 in/hr0.0 mm/hr 0.00 in0.0 mm
08:48 AM 25.2°F-3.8°C 12.1°F-11.1°C 57% 1.1 mph E1.8 kmh E 1.6 mph2.6 kmh 30.42 in1030.1 mb 0.00 in0.0 mm 0.00 in/hr0.0 mm/hr 0.00 in0.0 mm
08:47 AM 25.0°F-3.9°C 11.9°F-11.2°C 57% 1.1 mph E1.8 kmh E 1.6 mph2.6 kmh 30.42 in1030.1 mb 0.00 in0.0 mm 0.00 in/hr0.0 mm/hr 0.00 in0.0 mm
08:46 AM 25.0°F-3.9°C 12.3°F-10.9°C 58% 1.0 mph E1.6 kmh E 1.6 mph2.6 kmh 30.42 in1030.1 mb 0.00 in0.0 mm 0.00 in/hr0.0 mm/hr 0.00 in0.0 mm
08:45 AM 24.8°F-4.0°C 12.6°F-10.8°C 59% 1.0 mph E1.6 kmh E 2.4 mph3.9 kmh 30.42 in1030.1 mb 0.00 in0.0 mm 0.00 in/hr0.0 mm/hr 0.00 in0.0 mm
08:44 AM 25.0°F-3.9°C 12.7°F-10.7°C 59% 1.1 mph E1.8 kmh E 2.4 mph3.9 kmh 30.42 in1030.1 mb 0.00 in0.0 mm 0.00 in/hr0.0 mm/hr 0.00 in0.0 mm
08:43 AM 24.8°F-4.0°C 12.6°F-10.8°C 59% 1.2 mph E1.9 kmh E 2.4 mph3.9 kmh 30.42 in1030.1 mb 0.00 in0.0 mm 0.00 in/hr0.0 mm/hr 0.00 in0.0 mm
08:42 AM 24.6°F-4.1°C 12.8°F-10.7°C 60% 1.2 mph E1.9 kmh E 2.4 mph3.9 kmh 30.42 in1030.1 mb 0.00 in0.0 mm 0.00 in/hr0.0 mm/hr 0.00 in0.0 mm
08:41 AM 24.4°F-4.2°C 13.0°F-10.6°C 61% 1.1 mph E1.8 kmh E 2.4 mph3.9 kmh 30.43 in1030.5 mb 0.00 in0.0 mm 0.00 in/hr0.0 mm/hr 0.00 in0.0 mm
08:40 AM 24.4°F-4.2°C 13.0°F-10.6°C 61% 1.0 mph E1.6 kmh E 2.4 mph3.9 kmh 30.42 in1030.1 mb 0.00 in0.0 mm 0.00 in/hr0.0 mm/hr 0.00 in0.0 mm
08:39 AM 24.1°F-4.4°C 12.6°F-10.8°C 61% 1.0 mph E1.6 kmh E 2.4 mph3.9 kmh 30.42 in1030.1 mb 0.00 in0.0 mm 0.00 in/hr0.0 mm/hr 0.00 in0.0 mm
08:38 AM 23.9°F-4.5°C 12.8°F-10.7°C 62% 0.9 mph E1.4 kmh E 2.4 mph3.9 kmh 30.40 in1029.5 mb 0.00 in0.0 mm 0.00 in/hr0.0 mm/hr 0.00 in0.0 mm
08:37 AM 23.7°F-4.6°C 12.7°F-10.7°C 62% 0.8 mph E1.3 kmh E 2.4 mph3.9 kmh 30.45 in1031.2 mb 0.00 in0.0 mm 0.00 in/hr0.0 mm/hr 0.00 in0.0 mm
08:36 AM 23.7°F-4.6°C 12.7°F-10.7°C 62% 0.7 mph E1.1 kmh E 2.4 mph3.9 kmh 30.49 in1032.5 mb 0.00 in0.0 mm 0.00 in/hr0.0 mm/hr 0.00 in0.0 mm
08:35 AM 23.7°F-4.6°C 12.7°F-10.7°C 62% 0.5 mph E0.8 kmh E 2.4 mph3.9 kmh 30.50 in1032.8 mb 0.00 in0.0 mm 0.00 in/hr0.0 mm/hr 0.00 in0.0 mm
08:34 AM 23.5°F-4.7°C 12.5°F-10.8°C 62% 0.3 mph ESE0.5 kmh ESE 1.6 mph2.6 kmh 30.45 in1031.2 mb 0.00 in0.0 mm 0.00 in/hr0.0 mm/hr 0.00 in0.0 mm
08:33 AM 23.5°F-4.7°C 12.8°F-10.7°C 63% 0.1 mph SE0.2 kmh SE 1.6 mph2.6 kmh 30.43 in1030.5 mb 0.00 in0.0 mm 0.00 in/hr0.0 mm/hr 0.00 in0.0 mm
08:32 AM 23.5°F-4.7°C 12.8°F-10.7°C 63% Calm Calm -- 30.43 in1030.5 mb 0.00 in0.0 mm 0.00 in/hr0.0 mm/hr 0.00 in0.0 mm
08:31 AM 23.5°F-4.7°C 12.8°F-10.7°C 63% 0.1 mph E0.2 kmh E 0.8 mph1.3 kmh 30.43 in1030.5 mb 0.00 in0.0 mm 0.00 in/hr0.0 mm/hr 0.00 in0.0 mm
08:30 AM 23.5°F-4.7°C 12.8°F-10.7°C 63% 0.2 mph E0.3 kmh E 1.6 mph2.6 kmh 30.43 in1030.5 mb 0.00 in0.0 mm 0.00 in/hr0.0 mm/hr 0.00 in0.0 mm
08:29 AM 23.0°F-5.0°C 12.3°F-10.9°C 63% 0.4 mph SE0.6 kmh SE 2.4 mph3.9 kmh 30.43 in1030.5 mb 0.00 in0.0 mm 0.00 in/hr0.0 mm/hr 0.00 in0.0 mm
08:28 AM 23.0°F-5.0°C 12.3°F-10.9°C 63% 0.4 mph SE0.6 kmh SE 2.4 mph3.9 kmh 30.43 in1030.5 mb 0.00 in0.0 mm 0.00 in/hr0.0 mm/hr 0.00 in0.0 mm
08:27 AM 23.0°F-5.0°C 12.3°F-10.9°C 63% 0.7 mph SSE1.1 kmh SSE 2.4 mph3.9 kmh 30.43 in1030.5 mb 0.00 in0.0 mm 0.00 in/hr0.0 mm/hr 0.00 in0.0 mm
08:26 AM 23.0°F-5.0°C 12.3°F-10.9°C 63% 0.7 mph SSE1.1 kmh SSE 2.4 mph3.9 kmh 30.43 in1030.5 mb 0.00 in0.0 mm 0.00 in/hr0.0 mm/hr 0.00 in0.0 mm
08:25 AM 22.8°F-5.1°C 12.5°F-10.8°C 64% 0.7 mph SSE1.1 kmh SSE 2.4 mph3.9 kmh 30.43 in1030.5 mb 0.00 in0.0 mm 0.00 in/hr0.0 mm/hr 0.00 in0.0 mm
08:24 AM 22.6°F-5.2°C 12.3°F-10.9°C 64% 0.7 mph SSE1.1 kmh SSE 2.4 mph3.9 kmh 30.43 in1030.5 mb 0.00 in0.0 mm 0.00 in/hr0.0 mm/hr 0.00 in0.0 mm
08:23 AM 22.8°F-5.1°C 12.5°F-10.8°C 64% 0.7 mph SSE1.1 kmh SSE 2.4 mph3.9 kmh 30.43 in1030.5 mb 0.00 in0.0 mm 0.00 in/hr0.0 mm/hr 0.00 in0.0 mm
08:22 AM 22.8°F-5.1°C 12.5°F-10.8°C 64% 0.7 mph SSE1.1 kmh SSE 2.4 mph3.9 kmh 30.43 in1030.5 mb 0.00 in0.0 mm 0.00 in/hr0.0 mm/hr 0.00 in0.0 mm
08:21 AM 22.6°F-5.2°C 12.3°F-10.9°C 64% 0.6 mph SSE1.0 kmh SSE 2.4 mph3.9 kmh 30.43 in1030.5 mb 0.00 in0.0 mm 0.00 in/hr0.0 mm/hr 0.00 in0.0 mm
08:20 AM 23.0°F-5.0°C 12.3°F-10.9°C 63% 0.5 mph S0.8 kmh S 2.4 mph3.9 kmh 30.43 in1030.5 mb 0.00 in0.0 mm 0.00 in/hr0.0 mm/hr 0.00 in0.0 mm
08:19 AM 22.8°F-5.1°C 12.5°F-10.8°C 64% 0.3 mph S0.5 kmh S 2.4 mph3.9 kmh 30.43 in1030.5 mb 0.00 in0.0 mm 0.00 in/hr0.0 mm/hr 0.00 in0.0 mm
08:18 AM 22.6°F-5.2°C 12.3°F-10.9°C 64% 0.2 mph S0.3 kmh S 2.4 mph3.9 kmh 30.43 in1030.5 mb 0.00 in0.0 mm 0.00 in/hr0.0 mm/hr 0.00 in0.0 mm
08:17 AM 22.3°F-5.4°C 12.0°F-11.1°C 64% Calm Calm -- 30.43 in1030.5 mb 0.00 in0.0 mm 0.00 in/hr0.0 mm/hr 0.00 in0.0 mm
08:16 AM 22.1°F-5.5°C 11.8°F-11.2°C 64% Calm Calm -- 30.43 in1030.5 mb 0.00 in0.0 mm 0.00 in/hr0.0 mm/hr 0.00 in0.0 mm
08:15 AM 22.3°F-5.4°C 12.0°F-11.1°C 64% Calm Calm -- 30.43 in1030.5 mb 0.00 in0.0 mm 0.00 in/hr0.0 mm/hr 0.00 in0.0 mm
08:14 AM 22.3°F-5.4°C 12.0°F-11.1°C 64% Calm Calm -- 30.43 in1030.5 mb 0.00 in0.0 mm 0.00 in/hr0.0 mm/hr 0.00 in0.0 mm
08:13 AM 22.3°F-5.4°C 12.4°F-10.9°C 65% Calm Calm -- 30.43 in1030.5 mb 0.00 in0.0 mm 0.00 in/hr0.0 mm/hr 0.00 in0.0 mm
08:12 AM 22.6°F-5.2°C 12.7°F-10.7°C 65% Calm Calm -- 30.43 in1030.5 mb 0.00 in0.0 mm 0.00 in/hr0.0 mm/hr 0.00 in0.0 mm
08:11 AM 22.3°F-5.4°C 12.4°F-10.9°C 65% 0.1 mph E0.2 kmh E 0.8 mph1.3 kmh 30.43 in1030.5 mb 0.00 in0.0 mm 0.00 in/hr0.0 mm/hr 0.00 in0.0 mm
08:10 AM 22.5°F-5.3°C 12.9°F-10.6°C 66% 0.2 mph E0.3 kmh E 1.6 mph2.6 kmh 30.43 in1030.5 mb 0.00 in0.0 mm 0.00 in/hr0.0 mm/hr 0.00 in0.0 mm
08:09 AM 22.3°F-5.4°C 12.7°F-10.7°C 66% 0.4 mph SE0.6 kmh SE 1.6 mph2.6 kmh 30.43 in1030.5 mb 0.00 in0.0 mm 0.00 in/hr0.0 mm/hr 0.00 in0.0 mm
08:08 AM 22.1°F-5.5°C 12.5°F-10.8°C 66% 0.5 mph SSE0.8 kmh SSE 1.6 mph2.6 kmh 30.43 in1030.5 mb 0.00 in0.0 mm 0.00 in/hr0.0 mm/hr 0.00 in0.0 mm
08:07 AM 21.9°F-5.6°C 12.4°F-10.9°C 66% 0.6 mph SSE1.0 kmh SSE 1.6 mph2.6 kmh 30.43 in1030.5 mb 0.00 in0.0 mm 0.00 in/hr0.0 mm/hr 0.00 in0.0 mm
08:06 AM 21.6°F-5.8°C 12.4°F-10.9°C 67% 0.9 mph S1.4 kmh S 2.4 mph3.9 kmh 30.43 in1030.5 mb 0.00 in0.0 mm 0.00 in/hr0.0 mm/hr 0.00 in0.0 mm
08:05 AM 20.8°F-6.2°C 12.0°F-11.1°C 68% 1.0 mph S1.6 kmh S 2.4 mph3.9 kmh 30.43 in1030.5 mb 0.00 in0.0 mm 0.00 in/hr0.0 mm/hr 0.00 in0.0 mm
08:04 AM 20.7°F-6.3°C 11.8°F-11.2°C 68% 1.0 mph S1.6 kmh S 2.4 mph3.9 kmh 30.43 in1030.5 mb 0.00 in0.0 mm 0.00 in/hr0.0 mm/hr 0.00 in0.0 mm
08:03 AM 20.8°F-6.2°C 12.0°F-11.1°C 68% 1.0 mph S1.6 kmh S 2.4 mph3.9 kmh 30.43 in1030.5 mb 0.00 in0.0 mm 0.00 in/hr0.0 mm/hr 0.00 in0.0 mm
08:02 AM 20.7°F-6.3°C 11.8°F-11.2°C 68% 1.1 mph S1.8 kmh S 2.4 mph3.9 kmh 30.43 in1030.5 mb 0.00 in0.0 mm 0.00 in/hr0.0 mm/hr 0.00 in0.0 mm
08:01 AM 20.7°F-6.3°C 11.8°F-11.2°C 68% 1.1 mph S1.8 kmh S 2.4 mph3.9 kmh 30.43 in1030.5 mb 0.00 in0.0 mm 0.00 in/hr0.0 mm/hr 0.00 in0.0 mm
08:00 AM 20.8°F-6.2°C 12.0°F-11.1°C 68% 1.0 mph S1.6 kmh S 2.4 mph3.9 kmh 30.43 in1030.5 mb 0.00 in0.0 mm 0.00 in/hr0.0 mm/hr 0.00 in0.0 mm
07:59 AM 20.7°F-6.3°C 11.5°F-11.4°C 67% 0.9 mph S1.4 kmh S 2.4 mph3.9 kmh 30.43 in1030.5 mb 0.00 in0.0 mm 0.00 in/hr0.0 mm/hr 0.00 in0.0 mm
07:58 AM 20.7°F-6.3°C 11.5°F-11.4°C 67% 0.8 mph S1.3 kmh S 2.4 mph3.9 kmh 30.43 in1030.5 mb 0.00 in0.0 mm 0.00 in/hr0.0 mm/hr 0.00 in0.0 mm
07:57 AM 20.8°F-6.2°C 11.7°F-11.3°C 67% 0.6 mph S1.0 kmh S 2.4 mph3.9 kmh 30.43 in1030.5 mb 0.00 in0.0 mm 0.00 in/hr0.0 mm/hr 0.00 in0.0 mm
07:56 AM 21.0°F-6.1°C 11.8°F-11.2°C 67% 0.4 mph S0.6 kmh S 2.4 mph3.9 kmh 30.43 in1030.5 mb 0.00 in0.0 mm 0.00 in/hr0.0 mm/hr 0.00 in0.0 mm
07:55 AM 20.8°F-6.2°C 11.7°F-11.3°C 67% 0.3 mph S0.5 kmh S 1.6 mph2.6 kmh 30.44 in1030.8 mb 0.00 in0.0 mm 0.00 in/hr0.0 mm/hr 0.00 in0.0 mm
07:54 AM 20.8°F-6.2°C 11.7°F-11.3°C 67% 0.3 mph S0.5 kmh S 1.6 mph2.6 kmh 30.44 in1030.8 mb 0.00 in0.0 mm 0.00 in/hr0.0 mm/hr 0.00 in0.0 mm
07:53 AM 21.0°F-6.1°C 11.8°F-11.2°C 67% 0.3 mph S0.5 kmh S 1.6 mph2.6 kmh 30.44 in1030.8 mb 0.00 in0.0 mm 0.00 in/hr0.0 mm/hr 0.00 in0.0 mm
07:52 AM 21.6°F-5.8°C 12.0°F-11.1°C 66% 0.2 mph S0.3 kmh S 1.6 mph2.6 kmh 30.43 in1030.5 mb 0.00 in0.0 mm 0.00 in/hr0.0 mm/hr 0.00 in0.0 mm
07:51 AM 21.9°F-5.6°C 12.7°F-10.7°C 67% Calm Calm 0.8 mph1.3 kmh 30.43 in1030.5 mb 0.00 in0.0 mm 0.00 in/hr0.0 mm/hr 0.00 in0.0 mm
07:50 AM 22.1°F-5.5°C 12.9°F-10.6°C 67% Calm Calm -- 30.43 in1030.5 mb 0.00 in0.0 mm 0.00 in/hr0.0 mm/hr 0.00 in0.0 mm
07:49 AM 23.4°F-4.8°C 14.1°F-9.9°C 67% Calm Calm -- 30.44 in1030.8 mb 0.00 in0.0 mm 0.00 in/hr0.0 mm/hr 0.00 in0.0 mm
07:48 AM 23.0°F-5.0°C 14.1°F-9.9°C 68% Calm Calm -- 30.44 in1030.8 mb 0.00 in0.0 mm 0.00 in/hr0.0 mm/hr 0.00 in0.0 mm
07:47 AM 22.3°F-5.4°C 13.7°F-10.2°C 69% Calm Calm -- 30.44 in1030.8 mb 0.00 in0.0 mm 0.00 in/hr0.0 mm/hr 0.00 in0.0 mm
07:46 AM 21.2°F-6.0°C 13.0°F-10.6°C 70% Calm Calm -- 30.44 in1030.8 mb 0.00 in0.0 mm 0.00 in/hr0.0 mm/hr 0.00 in0.0 mm
07:45 AM 21.0°F-6.1°C 13.1°F-10.5°C 71% Calm Calm -- 30.44 in1030.8 mb 0.00 in0.0 mm 0.00 in/hr0.0 mm/hr 0.00 in0.0 mm
07:44 AM 20.7°F-6.3°C 12.8°F-10.7°C 71% Calm Calm -- 30.44 in1030.8 mb 0.00 in0.0 mm 0.00 in/hr0.0 mm/hr 0.00 in0.0 mm
07:43 AM 20.3°F-6.5°C 12.8°F-10.7°C 72% Calm Calm -- 30.44 in1030.8 mb 0.00 in0.0 mm 0.00 in/hr0.0 mm/hr 0.00 in0.0 mm
07:42 AM 19.6°F-6.9°C 12.1°F-11.1°C 72% Calm Calm -- 30.43 in1030.5 mb 0.00 in0.0 mm 0.00 in/hr0.0 mm/hr 0.00 in0.0 mm
07:41 AM 19.2°F-7.1°C 10.4°F-12.0°C 68% Calm Calm -- 30.43 in1030.5 mb 0.00 in0.0 mm 0.00 in/hr0.0 mm/hr 0.00 in0.0 mm
07:40 AM 19.0°F-7.2°C 10.3°F-12.1°C 68% Calm Calm -- 30.43 in1030.5 mb 0.00 in0.0 mm 0.00 in/hr0.0 mm/hr 0.00 in0.0 mm
07:39 AM 18.9°F-7.3°C 10.1°F-12.2°C 68% Calm Calm -- 30.43 in1030.5 mb 0.00 in0.0 mm 0.00 in/hr0.0 mm/hr 0.00 in0.0 mm
07:38 AM 18.9°F-7.3°C 10.1°F-12.2°C 68% Calm Calm -- 30.43 in1030.5 mb 0.00 in0.0 mm 0.00 in/hr0.0 mm/hr 0.00 in0.0 mm
07:37 AM 18.9°F-7.3°C 10.1°F-12.2°C 68% Calm Calm -- 30.43 in1030.5 mb 0.00 in0.0 mm 0.00 in/hr0.0 mm/hr 0.00 in0.0 mm
07:36 AM 19.0°F-7.2°C 10.3°F-12.1°C 68% Calm Calm -- 30.43 in1030.5 mb 0.00 in0.0 mm 0.00 in/hr0.0 mm/hr 0.00 in0.0 mm
07:35 AM 19.0°F-7.2°C 10.3°F-12.1°C 68% Calm Calm -- 30.43 in1030.5 mb 0.00 in0.0 mm 0.00 in/hr0.0 mm/hr 0.00 in0.0 mm
07:34 AM 19.4°F-7.0°C 11.9°F-11.2°C 72% Calm Calm -- 30.44 in1030.8 mb 0.00 in0.0 mm 0.00 in/hr0.0 mm/hr 0.00 in0.0 mm
07:33 AM 19.6°F-6.9°C 12.1°F-11.1°C 72% Calm Calm -- 30.43 in1030.5 mb 0.00 in0.0 mm 0.00 in/hr0.0 mm/hr 0.00 in0.0 mm
07:32 AM 19.4°F-7.0°C 11.9°F-11.2°C 72% Calm Calm -- 30.44 in1030.8 mb 0.00 in0.0 mm 0.00 in/hr0.0 mm/hr 0.00 in0.0 mm
07:31 AM 19.4°F-7.0°C 11.9°F-11.2°C 72% Calm Calm -- 30.43 in1030.5 mb 0.00 in0.0 mm 0.00 in/hr0.0 mm/hr 0.00 in0.0 mm
07:30 AM 19.2°F-7.1°C 10.4°F-12.0°C 68% Calm Calm -- 30.44 in1030.8 mb 0.00 in0.0 mm 0.00 in/hr0.0 mm/hr 0.00 in0.0 mm
07:29 AM 19.2°F-7.1°C 10.4°F-12.0°C 68% Calm Calm -- 30.44 in1030.8 mb 0.00 in0.0 mm 0.00 in/hr0.0 mm/hr 0.00 in0.0 mm
07:28 AM 19.0°F-7.2°C 10.3°F-12.1°C 68% Calm Calm -- 30.44 in1030.8 mb 0.00 in0.0 mm 0.00 in/hr0.0 mm/hr 0.00 in0.0 mm
07:27 AM 18.9°F-7.3°C 10.1°F-12.2°C 68% Calm Calm -- 30.44 in1030.8 mb 0.00 in0.0 mm 0.00 in/hr0.0 mm/hr 0.00 in0.0 mm
07:26 AM 18.1°F-7.7°C 9.1°F-12.7°C 67% Calm Calm -- 30.44 in1030.8 mb 0.00 in0.0 mm 0.00 in/hr0.0 mm/hr 0.00 in0.0 mm
07:25 AM 18.0°F-7.8°C 8.9°F-12.8°C 67% Calm Calm -- 30.44 in1030.8 mb 0.00 in0.0 mm 0.00 in/hr0.0 mm/hr 0.00 in0.0 mm
07:24 AM 17.8°F-7.9°C 8.7°F-12.9°C 67% Calm Calm -- 30.44 in1030.8 mb 0.00 in0.0 mm 0.00 in/hr0.0 mm/hr 0.00 in0.0 mm
07:23 AM 17.8°F-7.9°C 8.7°F-12.9°C 67% Calm Calm -- 30.44 in1030.8 mb 0.00 in0.0 mm 0.00 in/hr0.0 mm/hr 0.00 in0.0 mm
07:22 AM 17.6°F-8.0°C 8.6°F-13.0°C 67% Calm Calm -- 30.44 in1030.8 mb 0.00 in0.0 mm 0.00 in/hr0.0 mm/hr 0.00 in0.0 mm
07:21 AM 17.4°F-8.1°C 8.7°F-12.9°C 68% Calm Calm -- 30.44 in1030.8 mb 0.00 in0.0 mm 0.00 in/hr0.0 mm/hr 0.00 in0.0 mm
07:20 AM 17.2°F-8.2°C 8.6°F-13.0°C 68% Calm Calm -- 30.44 in1030.8 mb 0.00 in0.0 mm 0.00 in/hr0.0 mm/hr 0.00 in0.0 mm
07:19 AM 17.2°F-8.2°C 8.6°F-13.0°C 68% Calm Calm -- 30.44 in1030.8 mb 0.00 in0.0 mm 0.00 in/hr0.0 mm/hr 0.00 in0.0 mm
07:18 AM 17.1°F-8.3°C 8.4°F-13.1°C 68% Calm Calm -- 30.44 in1030.8 mb 0.00 in0.0 mm 0.00 in/hr0.0 mm/hr 0.00 in0.0 mm
07:17 AM 17.1°F-8.3°C 8.1°F-13.3°C 67% Calm Calm -- 30.45 in1031.2 mb 0.00 in0.0 mm 0.00 in/hr0.0 mm/hr 0.00 in0.0 mm
07:16 AM 17.1°F-8.3°C 8.1°F-13.3°C 67% Calm Calm -- 30.45 in1031.2 mb 0.00 in0.0 mm 0.00 in/hr0.0 mm/hr 0.00 in0.0 mm
07:15 AM 17.2°F-8.2°C 8.2°F-13.2°C 67% Calm Calm -- 30.45 in1031.2 mb 0.00 in0.0 mm 0.00 in/hr0.0 mm/hr 0.00 in0.0 mm
07:14 AM 17.6°F-8.0°C 8.2°F-13.2°C 66% Calm Calm -- 30.45 in1031.2 mb 0.00 in0.0 mm 0.00 in/hr0.0 mm/hr 0.00 in0.0 mm
07:13 AM 17.8°F-7.9°C 8.4°F-13.1°C 66% Calm Calm -- 30.45 in1031.2 mb 0.00 in0.0 mm 0.00 in/hr0.0 mm/hr 0.00 in0.0 mm
07:12 AM 18.0°F-7.8°C 8.2°F-13.2°C 65% Calm Calm -- 30.45 in1031.2 mb 0.00 in0.0 mm 0.00 in/hr0.0 mm/hr 0.00 in0.0 mm
07:11 AM 18.1°F-7.7°C 8.4°F-13.1°C 65% Calm Calm -- 30.45 in1031.2 mb 0.00 in0.0 mm 0.00 in/hr0.0 mm/hr 0.00 in0.0 mm
07:10 AM 18.1°F-7.7°C 8.4°F-13.1°C 65% Calm Calm -- 30.45 in1031.2 mb 0.00 in0.0 mm 0.00 in/hr0.0 mm/hr 0.00 in0.0 mm
07:09 AM 18.1°F-7.7°C 8.4°F-13.1°C 65% Calm Calm -- 30.45 in1031.2 mb 0.00 in0.0 mm 0.00 in/hr0.0 mm/hr 0.00 in0.0 mm
07:08 AM 18.0°F-7.8°C 8.2°F-13.2°C 65% Calm Calm -- 30.45 in1031.2 mb 0.00 in0.0 mm 0.00 in/hr0.0 mm/hr 0.00 in0.0 mm
07:07 AM 17.8°F-7.9°C 7.7°F-13.5°C 64% Calm Calm -- 30.45 in1031.2 mb 0.00 in0.0 mm 0.00 in/hr0.0 mm/hr 0.00 in0.0 mm
07:06 AM 17.8°F-7.9°C 7.7°F-13.5°C 64% Calm Calm -- 30.45 in1031.2 mb 0.00 in0.0 mm 0.00 in/hr0.0 mm/hr 0.00 in0.0 mm
07:05 AM 17.8°F-7.9°C 7.7°F-13.5°C 64% Calm Calm -- 30.45 in1031.2 mb 0.00 in0.0 mm 0.00 in/hr0.0 mm/hr 0.00 in0.0 mm
07:04 AM 17.8°F-7.9°C 7.7°F-13.5°C 64% Calm Calm -- 30.44 in1030.8 mb 0.00 in0.0 mm 0.00 in/hr0.0 mm/hr 0.00 in0.0 mm
07:03 AM 17.8°F-7.9°C 7.7°F-13.5°C 64% Calm Calm -- 30.45 in1031.2 mb 0.00 in0.0 mm 0.00 in/hr0.0 mm/hr 0.00 in0.0 mm
07:02 AM 17.8°F-7.9°C 7.7°F-13.5°C 64% Calm Calm -- 30.45 in1031.2 mb 0.00 in0.0 mm 0.00 in/hr0.0 mm/hr 0.00 in0.0 mm
07:01 AM 17.8°F-7.9°C 7.7°F-13.5°C 64% Calm Calm -- 30.45 in1031.2 mb 0.00 in0.0 mm 0.00 in/hr0.0 mm/hr 0.00 in0.0 mm
07:00 AM 17.8°F-7.9°C 7.7°F-13.5°C 64% Calm Calm -- 30.45 in1031.2 mb 0.00 in0.0 mm 0.00 in/hr0.0 mm/hr 0.00 in0.0 mm
06:59 AM 17.8°F-7.9°C 7.7°F-13.5°C 64% Calm Calm -- 30.44 in1030.8 mb 0.00 in0.0 mm 0.00 in/hr0.0 mm/hr 0.00 in0.0 mm
06:58 AM 17.8°F-7.9°C 7.7°F-13.5°C 64% Calm Calm -- 30.44 in1030.8 mb 0.00 in0.0 mm 0.00 in/hr0.0 mm/hr 0.00 in0.0 mm
06:57 AM 17.8°F-7.9°C 7.7°F-13.5°C 64% Calm Calm -- 30.45 in1031.2 mb 0.00 in0.0 mm 0.00 in/hr0.0 mm/hr 0.00 in0.0 mm
06:56 AM 17.8°F-7.9°C 7.7°F-13.5°C 64% Calm Calm -- 30.45 in1031.2 mb 0.00 in0.0 mm 0.00 in/hr0.0 mm/hr 0.00 in0.0 mm
06:55 AM 17.8°F-7.9°C 7.7°F-13.5°C 64% Calm Calm -- 30.44 in1030.8 mb 0.00 in0.0 mm 0.00 in/hr0.0 mm/hr 0.00 in0.0 mm
06:54 AM 17.8°F-7.9°C 7.7°F-13.5°C 64% Calm Calm -- 30.45 in1031.2 mb 0.00 in0.0 mm 0.00 in/hr0.0 mm/hr 0.00 in0.0 mm
06:53 AM 17.8°F-7.9°C 7.7°F-13.5°C 64% Calm Calm -- 30.44 in1030.8 mb 0.00 in0.0 mm 0.00 in/hr0.0 mm/hr 0.00 in0.0 mm
06:52 AM 17.8°F-7.9°C 7.7°F-13.5°C 64% Calm Calm -- 30.45 in1031.2 mb 0.00 in0.0 mm 0.00 in/hr0.0 mm/hr 0.00 in0.0 mm
06:51 AM 17.8°F-7.9°C 7.7°F-13.5°C 64% Calm Calm -- 30.45 in1031.2 mb 0.00 in0.0 mm 0.00 in/hr0.0 mm/hr 0.00 in0.0 mm
06:50 AM 17.8°F-7.9°C 7.7°F-13.5°C 64% Calm Calm -- 30.45 in1031.2 mb 0.00 in0.0 mm 0.00 in/hr0.0 mm/hr 0.00 in0.0 mm
06:49 AM 17.8°F-7.9°C 7.7°F-13.5°C 64% Calm Calm -- 30.44 in1030.8 mb 0.00 in0.0 mm 0.00 in/hr0.0 mm/hr 0.00 in0.0 mm
06:48 AM 17.8°F-7.9°C 7.7°F-13.5°C 64% Calm Calm -- 30.45 in1031.2 mb 0.00 in0.0 mm 0.00 in/hr0.0 mm/hr 0.00 in0.0 mm
06:47 AM 17.8°F-7.9°C 7.7°F-13.5°C 64% Calm Calm -- 30.45 in1031.2 mb 0.00 in0.0 mm 0.00 in/hr0.0 mm/hr 0.00 in0.0 mm
06:46 AM 17.8°F-7.9°C 7.7°F-13.5°C 64% Calm Calm -- 30.45 in1031.2 mb 0.00 in0.0 mm 0.00 in/hr0.0 mm/hr 0.00 in0.0 mm
06:45 AM 17.8°F-7.9°C 7.7°F-13.5°C 64% Calm Calm -- 30.45 in1031.2 mb 0.00 in0.0 mm 0.00 in/hr0.0 mm/hr 0.00 in0.0 mm
06:44 AM 17.8°F-7.9°C 7.7°F-13.5°C 64% Calm Calm -- 30.44 in1030.8 mb 0.00 in0.0 mm 0.00 in/hr0.0 mm/hr 0.00 in0.0 mm
06:43 AM 17.6°F-8.0°C 7.6°F-13.6°C 64% Calm Calm -- 30.45 in1031.2 mb 0.00 in0.0 mm 0.00 in/hr0.0 mm/hr 0.00 in0.0 mm
06:42 AM 17.6°F-8.0°C 7.6°F-13.6°C 64% Calm Calm -- 30.45 in1031.2 mb 0.00 in0.0 mm 0.00 in/hr0.0 mm/hr 0.00 in0.0 mm
06:41 AM 17.6°F-8.0°C 7.6°F-13.6°C 64% Calm Calm -- 30.44 in1030.8 mb 0.00 in0.0 mm 0.00 in/hr0.0 mm/hr 0.00 in0.0 mm
06:40 AM 17.6°F-8.0°C 7.6°F-13.6°C 64% Calm Calm -- 30.44 in1030.8 mb 0.00 in0.0 mm 0.00 in/hr0.0 mm/hr 0.00 in0.0 mm
06:39 AM 17.6°F-8.0°C 7.6°F-13.6°C 64% Calm Calm -- 30.44 in1030.8 mb 0.00 in0.0 mm 0.00 in/hr0.0 mm/hr 0.00 in0.0 mm
06:38 AM 17.6°F-8.0°C 7.6°F-13.6°C 64% Calm Calm -- 30.44 in1030.8 mb 0.00 in0.0 mm 0.00 in/hr0.0 mm/hr 0.00 in0.0 mm
06:37 AM 17.6°F-8.0°C 7.6°F-13.6°C 64% Calm Calm -- 30.44 in1030.8 mb 0.00 in0.0 mm 0.00 in/hr0.0 mm/hr 0.00 in0.0 mm
06:36 AM 17.6°F-8.0°C 7.6°F-13.6°C 64% Calm Calm -- 30.44 in1030.8 mb 0.00 in0.0 mm 0.00 in/hr0.0 mm/hr 0.00 in0.0 mm
06:35 AM 17.6°F-8.0°C 7.6°F-13.6°C 64% Calm Calm -- 30.44 in1030.8 mb 0.00 in0.0 mm 0.00 in/hr0.0 mm/hr 0.00 in0.0 mm
06:34 AM 17.4°F-8.1°C 7.7°F-13.5°C 65% Calm Calm -- 30.44 in1030.8 mb 0.00 in0.0 mm 0.00 in/hr0.0 mm/hr 0.00 in0.0 mm
06:33 AM 17.4°F-8.1°C 7.7°F-13.5°C 65% Calm Calm -- 30.45 in1031.2 mb 0.00 in0.0 mm 0.00 in/hr0.0 mm/hr 0.00 in0.0 mm
06:32 AM 17.4°F-8.1°C 7.7°F-13.5°C 65% Calm Calm -- 30.45 in1031.2 mb 0.00 in0.0 mm 0.00 in/hr0.0 mm/hr 0.00 in0.0 mm
06:31 AM 17.2°F-8.2°C 7.6°F-13.6°C 65% Calm Calm -- 30.45 in1031.2 mb 0.00 in0.0 mm 0.00 in/hr0.0 mm/hr 0.00 in0.0 mm
06:30 AM 17.4°F-8.1°C 7.7°F-13.5°C 65% Calm Calm -- 30.45 in1031.2 mb 0.00 in0.0 mm 0.00 in/hr0.0 mm/hr 0.00 in0.0 mm
06:29 AM 17.4°F-8.1°C 7.7°F-13.5°C 65% Calm Calm -- 30.44 in1030.8 mb 0.00 in0.0 mm 0.00 in/hr0.0 mm/hr 0.00 in0.0 mm
06:28 AM 17.4°F-8.1°C 7.7°F-13.5°C 65% Calm Calm -- 30.44 in1030.8 mb 0.00 in0.0 mm 0.00 in/hr0.0 mm/hr 0.00 in0.0 mm
06:27 AM 17.4°F-8.1°C 7.4°F-13.7°C 64% Calm Calm -- 30.44 in1030.8 mb 0.00 in0.0 mm 0.00 in/hr0.0 mm/hr 0.00 in0.0 mm
06:26 AM 17.6°F-8.0°C 7.2°F-13.8°C 63% Calm Calm -- 30.44 in1030.8 mb 0.00 in0.0 mm 0.00 in/hr0.0 mm/hr 0.00 in0.0 mm
06:25 AM 17.6°F-8.0°C 7.2°F-13.8°C 63% Calm Calm 0.8 mph1.3 kmh 30.44 in1030.8 mb 0.00 in0.0 mm 0.00 in/hr0.0 mm/hr 0.00 in0.0 mm
06:24 AM 17.8°F-7.9°C 7.4°F-13.7°C 63% 0.2 mph NW0.3 kmh NW 1.6 mph2.6 kmh 30.44 in1030.8 mb 0.00 in0.0 mm 0.00 in/hr0.0 mm/hr 0.00 in0.0 mm
06:23 AM 17.8°F-7.9°C 7.4°F-13.7°C 63% 0.2 mph NW0.3 kmh NW 1.6 mph2.6 kmh 30.44 in1030.8 mb 0.00 in0.0 mm 0.00 in/hr0.0 mm/hr 0.00 in0.0 mm
06:22 AM 18.3°F-7.6°C 7.9°F-13.4°C 63% 0.2 mph NW0.3 kmh NW 1.6 mph2.6 kmh 30.44 in1030.8 mb 0.00 in0.0 mm 0.00 in/hr0.0 mm/hr 0.00 in0.0 mm
06:21 AM 18.5°F-7.5°C 8.1°F-13.3°C 63% 0.2 mph NW0.3 kmh NW 1.6 mph2.6 kmh 30.44 in1030.8 mb 0.00 in0.0 mm 0.00 in/hr0.0 mm/hr 0.00 in0.0 mm
06:20 AM 18.5°F-7.5°C 8.1°F-13.3°C 63% 0.2 mph NW0.3 kmh NW 1.6 mph2.6 kmh 30.44 in1030.8 mb 0.00 in0.0 mm 0.00 in/hr0.0 mm/hr 0.00 in0.0 mm
06:19 AM 18.5°F-7.5°C 8.1°F-13.3°C 63% 0.2 mph NW0.3 kmh NW 1.6 mph2.6 kmh 30.44 in1030.8 mb 0.00 in0.0 mm 0.00 in/hr0.0 mm/hr 0.00 in0.0 mm
06:18 AM 18.7°F-7.4°C 8.2°F-13.2°C 63% 0.2 mph NW0.3 kmh NW 1.6 mph2.6 kmh 30.44 in1030.8 mb 0.00 in0.0 mm 0.00 in/hr0.0 mm/hr 0.00 in0.0 mm
06:17 AM 18.7°F-7.4°C 8.2°F-13.2°C 63% 0.2 mph NW0.3 kmh NW 1.6 mph2.6 kmh 30.44 in1030.8 mb 0.00 in0.0 mm 0.00 in/hr0.0 mm/hr 0.00 in0.0 mm
06:16 AM 18.7°F-7.4°C 8.2°F-13.2°C 63% 0.3 mph WNW0.5 kmh WNW 1.6 mph2.6 kmh 30.43 in1030.5 mb 0.00 in0.0 mm 0.00 in/hr0.0 mm/hr 0.00 in0.0 mm
06:15 AM 18.5°F-7.5°C 8.1°F-13.3°C 63% 0.3 mph WNW0.5 kmh WNW 1.6 mph2.6 kmh 30.44 in1030.8 mb 0.00 in0.0 mm 0.00 in/hr0.0 mm/hr 0.00 in0.0 mm
06:14 AM 18.1°F-7.7°C 7.7°F-13.5°C 63% 0.3 mph SW0.5 kmh SW 1.6 mph2.6 kmh 30.43 in1030.5 mb 0.00 in0.0 mm 0.00 in/hr0.0 mm/hr 0.00 in0.0 mm
06:13 AM 18.1°F-7.7°C 7.7°F-13.5°C 63% 0.4 mph SW0.6 kmh SW 1.6 mph2.6 kmh 30.44 in1030.8 mb 0.00 in0.0 mm 0.00 in/hr0.0 mm/hr 0.00 in0.0 mm
06:12 AM 18.1°F-7.7°C 7.7°F-13.5°C 63% 0.5 mph SW0.8 kmh SW 1.6 mph2.6 kmh 30.43 in1030.5 mb 0.00 in0.0 mm 0.00 in/hr0.0 mm/hr 0.00 in0.0 mm
06:11 AM 18.1°F-7.7°C 7.7°F-13.5°C 63% 0.7 mph SSW1.1 kmh SSW 1.6 mph2.6 kmh 30.43 in1030.5 mb 0.00 in0.0 mm 0.00 in/hr0.0 mm/hr 0.00 in0.0 mm
06:10 AM 18.1°F-7.7°C 7.7°F-13.5°C 63% 0.7 mph SSW1.1 kmh SSW 1.6 mph2.6 kmh 30.44 in1030.8 mb 0.00 in0.0 mm 0.00 in/hr0.0 mm/hr 0.00 in0.0 mm
06:09 AM 18.1°F-7.7°C 7.7°F-13.5°C 63% 0.7 mph SSW1.1 kmh SSW 1.6 mph2.6 kmh 30.43 in1030.5 mb 0.00 in0.0 mm 0.00 in/hr0.0 mm/hr 0.00 in0.0 mm
06:08 AM 18.1°F-7.7°C 7.7°F-13.5°C 63% 0.7 mph SSW1.1 kmh SSW 1.6 mph2.6 kmh 30.43 in1030.5 mb 0.00 in0.0 mm 0.00 in/hr0.0 mm/hr 0.00 in0.0 mm
06:07 AM 18.0°F-7.8°C 7.6°F-13.6°C 63% 0.7 mph SSW1.1 kmh SSW 1.6 mph2.6 kmh 30.44 in1030.8 mb 0.00 in0.0 mm 0.00 in/hr0.0 mm/hr 0.00 in0.0 mm
06:06 AM 17.8°F-7.9°C 7.4°F-13.7°C 63% 0.8 mph S1.3 kmh S 1.6 mph2.6 kmh 30.44 in1030.8 mb 0.00 in0.0 mm 0.00 in/hr0.0 mm/hr 0.00 in0.0 mm
06:05 AM 17.8°F-7.9°C 7.4°F-13.7°C 63% 0.9 mph S1.4 kmh S 1.6 mph2.6 kmh 30.44 in1030.8 mb 0.00 in0.0 mm 0.00 in/hr0.0 mm/hr 0.00 in0.0 mm
06:04 AM 17.8°F-7.9°C 7.0°F-13.9°C 62% 0.8 mph S1.3 kmh S 1.6 mph2.6 kmh 30.44 in1030.8 mb 0.00 in0.0 mm 0.00 in/hr0.0 mm/hr 0.00 in0.0 mm
06:03 AM 18.0°F-7.8°C 7.2°F-13.8°C 62% 0.7 mph S1.1 kmh S 1.6 mph2.6 kmh 30.44 in1030.8 mb 0.00 in0.0 mm 0.00 in/hr0.0 mm/hr 0.00 in0.0 mm
06:02 AM 18.0°F-7.8°C 7.2°F-13.8°C 62% 0.5 mph S0.8 kmh S 1.6 mph2.6 kmh 30.43 in1030.5 mb 0.00 in0.0 mm 0.00 in/hr0.0 mm/hr 0.00 in0.0 mm
06:01 AM 18.0°F-7.8°C 7.2°F-13.8°C 62% 0.4 mph S0.6 kmh S 1.6 mph2.6 kmh 30.44 in1030.8 mb 0.00 in0.0 mm 0.00 in/hr0.0 mm/hr 0.00 in0.0 mm
06:00 AM 18.0°F-7.8°C 7.2°F-13.8°C 62% 0.4 mph S0.6 kmh S 1.6 mph2.6 kmh 30.44 in1030.8 mb 0.00 in0.0 mm 0.00 in/hr0.0 mm/hr 0.00 in0.0 mm
05:59 AM 18.0°F-7.8°C 7.6°F-13.6°C 63% 0.4 mph S0.6 kmh S 1.6 mph2.6 kmh 30.44 in1030.8 mb 0.00 in0.0 mm 0.00 in/hr0.0 mm/hr 0.00 in0.0 mm
05:58 AM 18.1°F-7.7°C 7.7°F-13.5°C 63% 0.4 mph S0.6 kmh S 1.6 mph2.6 kmh 30.44 in1030.8 mb 0.00 in0.0 mm 0.00 in/hr0.0 mm/hr 0.00 in0.0 mm
05:57 AM 18.3°F-7.6°C 7.9°F-13.4°C 63% 0.3 mph S0.5 kmh S 1.6 mph2.6 kmh 30.44 in1030.8 mb 0.00 in0.0 mm 0.00 in/hr0.0 mm/hr 0.00 in0.0 mm
05:56 AM 18.3°F-7.6°C 7.9°F-13.4°C 63% 0.2 mph S0.3 kmh S 1.6 mph2.6 kmh 30.43 in1030.5 mb 0.00 in0.0 mm 0.00 in/hr0.0 mm/hr 0.00 in0.0 mm
05:55 AM 18.5°F-7.5°C 8.1°F-13.3°C 63% Calm Calm 0.8 mph1.3 kmh 30.44 in1030.8 mb 0.00 in0.0 mm 0.00 in/hr0.0 mm/hr 0.00 in0.0 mm
05:54 AM 18.5°F-7.5°C 8.4°F-13.1°C 64% Calm Calm -- 30.43 in1030.5 mb 0.00 in0.0 mm 0.00 in/hr0.0 mm/hr 0.00 in0.0 mm
05:53 AM 18.5°F-7.5°C 8.4°F-13.1°C 64% Calm Calm -- 30.44 in1030.8 mb 0.00 in0.0 mm 0.00 in/hr0.0 mm/hr 0.00 in0.0 mm
05:52 AM 18.5°F-7.5°C 8.4°F-13.1°C 64% Calm Calm -- 30.43 in1030.5 mb 0.00 in0.0 mm 0.00 in/hr0.0 mm/hr 0.00 in0.0 mm
05:51 AM 18.5°F-7.5°C 8.4°F-13.1°C 64% Calm Calm -- 30.43 in1030.5 mb 0.00 in0.0 mm 0.00 in/hr0.0 mm/hr 0.00 in0.0 mm
05:50 AM 18.3°F-7.6°C 8.6°F-13.0°C 65% Calm Calm -- 30.43 in1030.5 mb 0.00 in0.0 mm 0.00 in/hr0.0 mm/hr 0.00 in0.0 mm
05:49 AM 18.5°F-7.5°C 8.8°F-12.9°C 65% Calm Calm 0.8 mph1.3 kmh 30.43 in1030.5 mb 0.00 in0.0 mm 0.00 in/hr0.0 mm/hr 0.00 in0.0 mm
05:48 AM 18.5°F-7.5°C 8.8°F-12.9°C 65% 0.1 mph WSW0.2 kmh WSW 0.8 mph1.3 kmh 30.43 in1030.5 mb 0.00 in0.0 mm 0.00 in/hr0.0 mm/hr 0.00 in0.0 mm
05:47 AM 18.3°F-7.6°C 8.6°F-13.0°C 65% 0.1 mph WSW0.2 kmh WSW 0.8 mph1.3 kmh 30.43 in1030.5 mb 0.00 in0.0 mm 0.00 in/hr0.0 mm/hr 0.00 in0.0 mm
05:46 AM 18.3°F-7.6°C 8.9°F-12.8°C 66% 0.3 mph SW0.5 kmh SW 1.6 mph2.6 kmh 30.43 in1030.5 mb 0.00 in0.0 mm 0.00 in/hr0.0 mm/hr 0.00 in0.0 mm
05:45 AM 18.3°F-7.6°C 8.9°F-12.8°C 66% 0.4 mph SSW0.6 kmh SSW 1.6 mph2.6 kmh 30.43 in1030.5 mb 0.00 in0.0 mm 0.00 in/hr0.0 mm/hr 0.00 in0.0 mm
05:44 AM 18.3°F-7.6°C 8.9°F-12.8°C 66% 0.5 mph S0.8 kmh S 1.6 mph2.6 kmh 30.43 in1030.5 mb 0.00 in0.0 mm 0.00 in/hr0.0 mm/hr 0.00 in0.0 mm
05:43 AM 18.1°F-7.7°C 8.8°F-12.9°C 66% 0.5 mph S0.8 kmh S 1.6 mph2.6 kmh 30.43 in1030.5 mb 0.00 in0.0 mm 0.00 in/hr0.0 mm/hr 0.00 in0.0 mm
05:42 AM 18.0°F-7.8°C 8.9°F-12.8°C 67% 0.5 mph S0.8 kmh S 1.6 mph2.6 kmh 30.43 in1030.5 mb 0.00 in0.0 mm 0.00 in/hr0.0 mm/hr 0.00 in0.0 mm
05:41 AM 18.0°F-7.8°C 8.9°F-12.8°C 67% 0.6 mph S1.0 kmh S 1.6 mph2.6 kmh 30.43 in1030.5 mb 0.00 in0.0 mm 0.00 in/hr0.0 mm/hr 0.00 in0.0 mm
05:40 AM 18.0°F-7.8°C 8.9°F-12.8°C 67% 0.6 mph S1.0 kmh S 1.6 mph2.6 kmh 30.43 in1030.5 mb 0.00 in0.0 mm 0.00 in/hr0.0 mm/hr 0.00 in0.0 mm
05:39 AM 18.0°F-7.8°C 9.2°F-12.7°C 68% 0.5 mph S0.8 kmh S 1.6 mph2.6 kmh 30.43 in1030.5 mb 0.00 in0.0 mm 0.00 in/hr0.0 mm/hr 0.00 in0.0 mm
05:38 AM 18.0°F-7.8°C 9.2°F-12.7°C 68% 0.4 mph S0.6 kmh S 1.6 mph2.6 kmh 30.43 in1030.5 mb 0.00 in0.0 mm 0.00 in/hr0.0 mm/hr 0.00 in0.0 mm
05:37 AM 18.0°F-7.8°C 9.2°F-12.7°C 68% 0.4 mph S0.6 kmh S 1.6 mph2.6 kmh 30.43 in1030.5 mb 0.00 in0.0 mm 0.00 in/hr0.0 mm/hr 0.00 in0.0 mm
05:36 AM 18.0°F-7.8°C 9.2°F-12.7°C 68% 0.3 mph S0.5 kmh S 1.6 mph2.6 kmh 30.43 in1030.5 mb 0.00 in0.0 mm 0.00 in/hr0.0 mm/hr 0.00 in0.0 mm
05:35 AM 17.8°F-7.9°C 9.1°F-12.7°C 68% 0.2 mph S0.3 kmh S 1.6 mph2.6 kmh 30.43 in1030.5 mb 0.00 in0.0 mm 0.00 in/hr0.0 mm/hr 0.00 in0.0 mm
05:34 AM 17.8°F-7.9°C 9.1°F-12.7°C 68% Calm Calm 1.6 mph2.6 kmh 30.43 in1030.5 mb 0.00 in0.0 mm 0.00 in/hr0.0 mm/hr 0.00 in0.0 mm
05:33 AM 17.6°F-8.0°C 8.9°F-12.8°C 68% Calm Calm -- 30.43 in1030.5 mb 0.00 in0.0 mm 0.00 in/hr0.0 mm/hr 0.00 in0.0 mm
05:32 AM 17.6°F-8.0°C 8.9°F-12.8°C 68% Calm Calm -- 30.43 in1030.5 mb 0.00 in0.0 mm 0.00 in/hr0.0 mm/hr 0.00 in0.0 mm
05:31 AM 17.4°F-8.1°C 9.1°F-12.7°C 69% Calm Calm -- 30.43 in1030.5 mb 0.00 in0.0 mm 0.00 in/hr0.0 mm/hr 0.00 in0.0 mm
05:30 AM 17.4°F-8.1°C 9.1°F-12.7°C 69% Calm Calm -- 30.44 in1030.8 mb 0.00 in0.0 mm 0.00 in/hr0.0 mm/hr 0.00 in0.0 mm
05:29 AM 17.4°F-8.1°C 9.1°F-12.7°C 69% Calm Calm -- 30.44 in1030.8 mb 0.00 in0.0 mm 0.00 in/hr0.0 mm/hr 0.00 in0.0 mm
05:28 AM 17.4°F-8.1°C 9.1°F-12.7°C 69% Calm Calm -- 30.44 in1030.8 mb 0.00 in0.0 mm 0.00 in/hr0.0 mm/hr 0.00 in0.0 mm
05:27 AM 17.2°F-8.2°C 8.9°F-12.8°C 69% Calm Calm -- 30.43 in1030.5 mb 0.00 in0.0 mm 0.00 in/hr0.0 mm/hr 0.00 in0.0 mm
05:26 AM 17.2°F-8.2°C 8.9°F-12.8°C 69% Calm Calm -- 30.43 in1030.5 mb 0.00 in0.0 mm 0.00 in/hr0.0 mm/hr 0.00 in0.0 mm
05:25 AM 17.1°F-8.3°C 8.7°F-12.9°C 69% Calm Calm -- 30.43 in1030.5 mb 0.00 in0.0 mm 0.00 in/hr0.0 mm/hr 0.00 in0.0 mm
05:24 AM 17.1°F-8.3°C 8.7°F-12.9°C 69% Calm Calm -- 30.44 in1030.8 mb 0.00 in0.0 mm 0.00 in/hr0.0 mm/hr 0.00 in0.0 mm
05:23 AM 16.7°F-8.5°C 8.4°F-13.1°C 69% Calm Calm -- 30.44 in1030.8 mb 0.00 in0.0 mm 0.00 in/hr0.0 mm/hr 0.00 in0.0 mm
05:22 AM 16.7°F-8.5°C 8.4°F-13.1°C 69% Calm Calm -- 30.44 in1030.8 mb 0.00 in0.0 mm 0.00 in/hr0.0 mm/hr 0.00 in0.0 mm
05:21 AM 16.7°F-8.5°C 8.4°F-13.1°C 69% Calm Calm -- 30.44 in1030.8 mb 0.00 in0.0 mm 0.00 in/hr0.0 mm/hr 0.00 in0.0 mm
05:20 AM 16.7°F-8.5°C 8.4°F-13.1°C 69% Calm Calm -- 30.43 in1030.5 mb 0.00 in0.0 mm 0.00 in/hr0.0 mm/hr 0.00 in0.0 mm
05:19 AM 16.7°F-8.5°C 8.4°F-13.1°C 69% Calm Calm -- 30.43 in1030.5 mb 0.00 in0.0 mm 0.00 in/hr0.0 mm/hr 0.00 in0.0 mm
05:18 AM 16.7°F-8.5°C 8.4°F-13.1°C 69% Calm Calm -- 30.44 in1030.8 mb 0.00 in0.0 mm 0.00 in/hr0.0 mm/hr 0.00 in0.0 mm
05:17 AM 16.9°F-8.4°C 8.5°F-13.1°C 69% Calm Calm -- 30.43 in1030.5 mb 0.00 in0.0 mm 0.00 in/hr0.0 mm/hr 0.00 in0.0 mm
05:16 AM 17.1°F-8.3°C 8.7°F-12.9°C 69% Calm Calm -- 30.44 in1030.8 mb 0.00 in0.0 mm 0.00 in/hr0.0 mm/hr 0.00 in0.0 mm
05:15 AM 17.1°F-8.3°C 8.7°F-12.9°C 69% Calm Calm -- 30.44 in1030.8 mb 0.00 in0.0 mm 0.00 in/hr0.0 mm/hr 0.00 in0.0 mm
05:14 AM 17.1°F-8.3°C 8.7°F-12.9°C 69% Calm Calm -- 30.44 in1030.8 mb 0.00 in0.0 mm 0.00 in/hr0.0 mm/hr 0.00 in0.0 mm
05:13 AM 17.4°F-8.1°C 9.1°F-12.7°C 69% Calm Calm -- 30.44 in1030.8 mb 0.00 in0.0 mm 0.00 in/hr0.0 mm/hr 0.00 in0.0 mm
05:12 AM 17.6°F-8.0°C 8.9°F-12.8°C 68% Calm Calm -- 30.44 in1030.8 mb 0.00 in0.0 mm 0.00 in/hr0.0 mm/hr 0.00 in0.0 mm
05:11 AM 17.6°F-8.0°C 8.9°F-12.8°C 68% Calm Calm -- 30.44 in1030.8 mb 0.00 in0.0 mm 0.00 in/hr0.0 mm/hr 0.00 in0.0 mm
05:10 AM 17.8°F-7.9°C 9.1°F-12.7°C 68% Calm Calm -- 30.44 in1030.8 mb 0.00 in0.0 mm 0.00 in/hr0.0 mm/hr 0.00 in0.0 mm
05:09 AM 17.8°F-7.9°C 9.1°F-12.7°C 68% Calm Calm -- 30.44 in1030.8 mb 0.00 in0.0 mm 0.00 in/hr0.0 mm/hr 0.00 in0.0 mm
05:08 AM 17.8°F-7.9°C 9.1°F-12.7°C 68% Calm Calm -- 30.45 in1031.2 mb 0.00 in0.0 mm 0.00 in/hr0.0 mm/hr 0.00 in0.0 mm
05:07 AM 17.1°F-8.3°C 8.7°F-12.9°C 69% Calm Calm -- 30.44 in1030.8 mb 0.00 in0.0 mm 0.00 in/hr0.0 mm/hr 0.00 in0.0 mm
05:06 AM 17.1°F-8.3°C 8.7°F-12.9°C 69% Calm Calm -- 30.44 in1030.8 mb 0.00 in0.0 mm 0.00 in/hr0.0 mm/hr 0.00 in0.0 mm
05:05 AM 17.1°F-8.3°C 8.7°F-12.9°C 69% Calm Calm -- 30.44 in1030.8 mb 0.00 in0.0 mm 0.00 in/hr0.0 mm/hr 0.00 in0.0 mm
05:04 AM 17.1°F-8.3°C 8.7°F-12.9°C 69% Calm Calm -- 30.44 in1030.8 mb 0.00 in0.0 mm 0.00 in/hr0.0 mm/hr 0.00 in0.0 mm
05:03 AM 17.1°F-8.3°C 8.7°F-12.9°C 69% Calm Calm -- 30.44 in1030.8 mb 0.00 in0.0 mm 0.00 in/hr0.0 mm/hr 0.00 in0.0 mm
05:02 AM 17.1°F-8.3°C 8.7°F-12.9°C 69% Calm Calm -- 30.44 in1030.8 mb 0.00 in0.0 mm 0.00 in/hr0.0 mm/hr 0.00 in0.0 mm
05:01 AM 17.1°F-8.3°C 8.7°F-12.9°C 69% Calm Calm -- 30.44 in1030.8 mb 0.00 in0.0 mm 0.00 in/hr0.0 mm/hr 0.00 in0.0 mm
05:00 AM 17.1°F-8.3°C 8.7°F-12.9°C 69% Calm Calm -- 30.44 in1030.8 mb 0.00 in0.0 mm 0.00 in/hr0.0 mm/hr 0.00 in0.0 mm
04:59 AM 17.1°F-8.3°C 8.7°F-12.9°C 69% Calm Calm -- 30.44 in1030.8 mb 0.00 in0.0 mm 0.00 in/hr0.0 mm/hr 0.00 in0.0 mm
04:58 AM 17.1°F-8.3°C 8.7°F-12.9°C 69% Calm Calm -- 30.44 in1030.8 mb 0.00 in0.0 mm 0.00 in/hr0.0 mm/hr 0.00 in0.0 mm
04:57 AM 17.1°F-8.3°C 8.7°F-12.9°C 69% Calm Calm -- 30.44 in1030.8 mb 0.00 in0.0 mm 0.00 in/hr0.0 mm/hr 0.00 in0.0 mm
04:56 AM 17.1°F-8.3°C 8.7°F-12.9°C 69% Calm Calm -- 30.43 in1030.5 mb 0.00 in0.0 mm 0.00 in/hr0.0 mm/hr 0.00 in0.0 mm
04:55 AM 17.1°F-8.3°C 8.7°F-12.9°C 69% Calm Calm -- 30.44 in1030.8 mb 0.00 in0.0 mm 0.00 in/hr0.0 mm/hr 0.00 in0.0 mm
04:54 AM 17.1°F-8.3°C 8.7°F-12.9°C 69% Calm Calm -- 30.43 in1030.5 mb 0.00 in0.0 mm 0.00 in/hr0.0 mm/hr 0.00 in0.0 mm
04:53 AM 17.1°F-8.3°C 8.7°F-12.9°C 69% Calm Calm -- 30.44 in1030.8 mb 0.00 in0.0 mm 0.00 in/hr0.0 mm/hr 0.00 in0.0 mm
04:52 AM 17.2°F-8.2°C 8.9°F-12.8°C 69% Calm Calm -- 30.43 in1030.5 mb 0.00 in0.0 mm 0.00 in/hr0.0 mm/hr 0.00 in0.0 mm
04:51 AM 17.4°F-8.1°C 9.1°F-12.7°C 69% Calm Calm -- 30.43 in1030.5 mb 0.00 in0.0 mm 0.00 in/hr0.0 mm/hr 0.00 in0.0 mm
04:50 AM 17.4°F-8.1°C 9.1°F-12.7°C 69% Calm Calm -- 30.43 in1030.5 mb 0.00 in0.0 mm 0.00 in/hr0.0 mm/hr 0.00 in0.0 mm
04:49 AM 17.6°F-8.0°C 8.9°F-12.8°C 68% Calm Calm -- 30.43 in1030.5 mb 0.00 in0.0 mm 0.00 in/hr0.0 mm/hr 0.00 in0.0 mm
04:48 AM 17.6°F-8.0°C 8.9°F-12.8°C 68% Calm Calm -- 30.43 in1030.5 mb 0.00 in0.0 mm 0.00 in/hr0.0 mm/hr 0.00 in0.0 mm
04:47 AM 17.6°F-8.0°C 8.9°F-12.8°C 68% Calm Calm -- 30.43 in1030.5 mb 0.00 in0.0 mm 0.00 in/hr0.0 mm/hr 0.00 in0.0 mm
04:46 AM 17.6°F-8.0°C 8.9°F-12.8°C 68% Calm Calm -- 30.43 in1030.5 mb 0.00 in0.0 mm 0.00 in/hr0.0 mm/hr 0.00 in0.0 mm
04:45 AM 17.6°F-8.0°C 8.9°F-12.8°C 68% Calm Calm -- 30.43 in1030.5 mb 0.00 in0.0 mm 0.00 in/hr0.0 mm/hr 0.00 in0.0 mm
04:44 AM 17.6°F-8.0°C 8.9°F-12.8°C 68% Calm Calm -- 30.43 in1030.5 mb 0.00 in0.0 mm 0.00 in/hr0.0 mm/hr 0.00 in0.0 mm
04:43 AM 17.6°F-8.0°C 8.9°F-12.8°C 68% Calm Calm -- 30.43 in1030.5 mb 0.00 in0.0 mm 0.00 in/hr0.0 mm/hr 0.00 in0.0 mm
04:42 AM 17.6°F-8.0°C 8.9°F-12.8°C 68% Calm Calm 1.6 mph2.6 kmh 30.43 in1030.5 mb 0.00 in0.0 mm 0.00 in/hr0.0 mm/hr 0.00 in0.0 mm
04:41 AM 17.6°F-8.0°C 8.9°F-12.8°C 68% 0.2 mph N0.3 kmh N 1.6 mph2.6 kmh 30.44 in1030.8 mb 0.00 in0.0 mm 0.00 in/hr0.0 mm/hr 0.00 in0.0 mm
04:40 AM 17.8°F-7.9°C 9.1°F-12.7°C 68% 0.2 mph NNW0.3 kmh NNW 1.6 mph2.6 kmh 30.43 in1030.5 mb 0.00 in0.0 mm 0.00 in/hr0.0 mm/hr 0.00 in0.0 mm
04:39 AM 17.8°F-7.9°C 9.1°F-12.7°C 68% 0.2 mph NNW0.3 kmh NNW 1.6 mph2.6 kmh 30.44 in1030.8 mb 0.00 in0.0 mm 0.00 in/hr0.0 mm/hr 0.00 in0.0 mm
04:38 AM 17.8°F-7.9°C 9.1°F-12.7°C 68% 0.2 mph NNW0.3 kmh NNW 1.6 mph2.6 kmh 30.43 in1030.5 mb 0.00 in0.0 mm 0.00 in/hr0.0 mm/hr 0.00 in0.0 mm
04:37 AM 17.6°F-8.0°C 8.9°F-12.8°C 68% 0.2 mph NNW0.3 kmh NNW 1.6 mph2.6 kmh 30.44 in1030.8 mb 0.00 in0.0 mm 0.00 in/hr0.0 mm/hr 0.00 in0.0 mm
04:36 AM 17.6°F-8.0°C 8.9°F-12.8°C 68% 0.2 mph NNW0.3 kmh NNW 1.6 mph2.6 kmh 30.43 in1030.5 mb 0.00 in0.0 mm 0.00 in/hr0.0 mm/hr 0.00 in0.0 mm
04:35 AM 17.6°F-8.0°C 8.9°F-12.8°C 68% 0.2 mph NNW0.3 kmh NNW 1.6 mph2.6 kmh 30.44 in1030.8 mb 0.00 in0.0 mm 0.00 in/hr0.0 mm/hr 0.00 in0.0 mm
04:34 AM 17.6°F-8.0°C 8.9°F-12.8°C 68% 0.2 mph NNW0.3 kmh NNW 1.6 mph2.6 kmh 30.43 in1030.5 mb 0.00 in0.0 mm 0.00 in/hr0.0 mm/hr 0.00 in0.0 mm
04:33 AM 17.6°F-8.0°C 8.6°F-13.0°C 67% 0.2 mph NNW0.3 kmh NNW 1.6 mph2.6 kmh 30.44 in1030.8 mb 0.00 in0.0 mm 0.00 in/hr0.0 mm/hr 0.00 in0.0 mm
04:32 AM 17.4°F-8.1°C 8.7°F-12.9°C 68% 0.2 mph NNW0.3 kmh NNW 1.6 mph2.6 kmh 30.43 in1030.5 mb 0.00 in0.0 mm 0.00 in/hr0.0 mm/hr 0.00 in0.0 mm
04:31 AM 17.4°F-8.1°C 8.4°F-13.1°C 67% 0.1 mph NW0.2 kmh NW 1.6 mph2.6 kmh 30.43 in1030.5 mb 0.00 in0.0 mm 0.00 in/hr0.0 mm/hr 0.00 in0.0 mm
04:30 AM 17.4°F-8.1°C 8.4°F-13.1°C 67% Calm Calm -- 30.44 in1030.8 mb 0.00 in0.0 mm 0.00 in/hr0.0 mm/hr 0.00 in0.0 mm
04:29 AM 17.2°F-8.2°C 7.9°F-13.4°C 66% Calm Calm -- 30.43 in1030.5 mb 0.00 in0.0 mm 0.00 in/hr0.0 mm/hr 0.00 in0.0 mm
04:28 AM 17.2°F-8.2°C 7.9°F-13.4°C 66% Calm Calm -- 30.44 in1030.8 mb 0.00 in0.0 mm 0.00 in/hr0.0 mm/hr 0.00 in0.0 mm
04:27 AM 17.4°F-8.1°C 8.1°F-13.3°C 66% Calm Calm -- 30.43 in1030.5 mb 0.00 in0.0 mm 0.00 in/hr0.0 mm/hr 0.00 in0.0 mm
04:26 AM 17.4°F-8.1°C 7.7°F-13.5°C 65% Calm Calm -- 30.43 in1030.5 mb 0.00 in0.0 mm 0.00 in/hr0.0 mm/hr 0.00 in0.0 mm
04:25 AM 17.8°F-7.9°C 7.7°F-13.5°C 64% Calm Calm -- 30.44 in1030.8 mb 0.00 in0.0 mm 0.00 in/hr0.0 mm/hr 0.00 in0.0 mm
04:24 AM 17.8°F-7.9°C 7.4°F-13.7°C 63% Calm Calm -- 30.44 in1030.8 mb 0.00 in0.0 mm 0.00 in/hr0.0 mm/hr 0.00 in0.0 mm
04:23 AM 18.0°F-7.8°C 7.6°F-13.6°C 63% Calm Calm -- 30.44 in1030.8 mb 0.00 in0.0 mm 0.00 in/hr0.0 mm/hr 0.00 in0.0 mm
04:22 AM 17.8°F-7.9°C 7.4°F-13.7°C 63% Calm Calm -- 30.44 in1030.8 mb 0.00 in0.0 mm 0.00 in/hr0.0 mm/hr 0.00 in0.0 mm
04:21 AM 18.0°F-7.8°C 7.2°F-13.8°C 62% Calm Calm -- 30.44 in1030.8 mb 0.00 in0.0 mm 0.00 in/hr0.0 mm/hr 0.00 in0.0 mm
04:20 AM 18.0°F-7.8°C 7.2°F-13.8°C 62% Calm Calm -- 30.44 in1030.8 mb 0.00 in0.0 mm 0.00 in/hr0.0 mm/hr 0.00 in0.0 mm
04:19 AM 18.0°F-7.8°C 7.2°F-13.8°C 62% Calm Calm -- 30.44 in1030.8 mb 0.00 in0.0 mm 0.00 in/hr0.0 mm/hr 0.00 in0.0 mm
04:18 AM 18.0°F-7.8°C 6.8°F-14.0°C 61% Calm Calm -- 30.44 in1030.8 mb 0.00 in0.0 mm 0.00 in/hr0.0 mm/hr 0.00 in0.0 mm
04:17 AM 18.1°F-7.7°C 7.0°F-13.9°C 61% Calm Calm -- 30.44 in1030.8 mb 0.00 in0.0 mm 0.00 in/hr0.0 mm/hr 0.00 in0.0 mm
04:16 AM 18.3°F-7.6°C 6.8°F-14.0°C 60% Calm Calm -- 30.44 in1030.8 mb 0.00 in0.0 mm 0.00 in/hr0.0 mm/hr 0.00 in0.0 mm
04:15 AM 18.5°F-7.5°C 7.0°F-13.9°C 60% Calm Calm -- 30.44 in1030.8 mb 0.00 in0.0 mm 0.00 in/hr0.0 mm/hr 0.00 in0.0 mm
04:14 AM 18.7°F-7.4°C 6.8°F-14.0°C 59% Calm Calm -- 30.44 in1030.8 mb 0.00 in0.0 mm 0.00 in/hr0.0 mm/hr 0.00 in0.0 mm
04:13 AM 18.9°F-7.3°C 7.0°F-13.9°C 59% Calm Calm -- 30.44 in1030.8 mb 0.00 in0.0 mm 0.00 in/hr0.0 mm/hr 0.00 in0.0 mm
04:12 AM 19.0°F-7.2°C 6.8°F-14.0°C 58% Calm Calm -- 30.44 in1030.8 mb 0.00 in0.0 mm 0.00 in/hr0.0 mm/hr 0.00 in0.0 mm
04:11 AM 19.0°F-7.2°C 6.8°F-14.0°C 58% Calm Calm -- 30.44 in1030.8 mb 0.00 in0.0 mm 0.00 in/hr0.0 mm/hr 0.00 in0.0 mm
04:10 AM 19.4°F-7.0°C 8.6°F-13.0°C 62% Calm Calm -- 30.44 in1030.8 mb 0.00 in0.0 mm 0.00 in/hr0.0 mm/hr 0.00 in0.0 mm
04:09 AM 19.6°F-6.9°C 8.7°F-12.9°C 62% Calm Calm -- 30.44 in1030.8 mb 0.00 in0.0 mm 0.00 in/hr0.0 mm/hr 0.00 in0.0 mm
04:08 AM 19.6°F-6.9°C 8.7°F-12.9°C 62% Calm Calm -- 30.44 in1030.8 mb 0.00 in0.0 mm 0.00 in/hr0.0 mm/hr 0.00 in0.0 mm
04:07 AM 19.6°F-6.9°C 8.7°F-12.9°C 62% Calm Calm -- 30.44 in1030.8 mb 0.00 in0.0 mm 0.00 in/hr0.0 mm/hr 0.00 in0.0 mm
04:06 AM 19.6°F-6.9°C 8.7°F-12.9°C 62% Calm Calm -- 30.44 in1030.8 mb 0.00 in0.0 mm 0.00 in/hr0.0 mm/hr 0.00 in0.0 mm
04:05 AM 19.6°F-6.9°C 8.7°F-12.9°C 62% Calm Calm -- 30.44 in1030.8 mb 0.00 in0.0 mm 0.00 in/hr0.0 mm/hr 0.00 in0.0 mm
04:04 AM 19.6°F-6.9°C 8.7°F-12.9°C 62% Calm Calm -- 30.44 in1030.8 mb 0.00 in0.0 mm 0.00 in/hr0.0 mm/hr 0.00 in0.0 mm
04:03 AM 19.6°F-6.9°C 8.7°F-12.9°C 62% Calm Calm -- 30.44 in1030.8 mb 0.00 in0.0 mm 0.00 in/hr0.0 mm/hr 0.00 in0.0 mm
04:02 AM 19.8°F-6.8°C 8.9°F-12.8°C 62% Calm Calm -- 30.44 in1030.8 mb 0.00 in0.0 mm 0.00 in/hr0.0 mm/hr 0.00 in0.0 mm
04:01 AM 19.8°F-6.8°C 8.9°F-12.8°C 62% Calm Calm -- 30.44 in1030.8 mb 0.00 in0.0 mm 0.00 in/hr0.0 mm/hr 0.00 in0.0 mm
04:00 AM 19.8°F-6.8°C 8.9°F-12.8°C 62% Calm Calm -- 30.44 in1030.8 mb 0.00 in0.0 mm 0.00 in/hr0.0 mm/hr 0.00 in0.0 mm
03:59 AM 19.6°F-6.9°C 8.7°F-12.9°C 62% Calm Calm -- 30.44 in1030.8 mb 0.00 in0.0 mm 0.00 in/hr0.0 mm/hr 0.00 in0.0 mm
03:58 AM 19.6°F-6.9°C 8.7°F-12.9°C 62% Calm Calm -- 30.44 in1030.8 mb 0.00 in0.0 mm 0.00 in/hr0.0 mm/hr 0.00 in0.0 mm
03:57 AM 19.6°F-6.9°C 8.7°F-12.9°C 62% Calm Calm -- 30.44 in1030.8 mb 0.00 in0.0 mm 0.00 in/hr0.0 mm/hr 0.00 in0.0 mm
03:56 AM 19.6°F-6.9°C 8.7°F-12.9°C 62% Calm Calm -- 30.44 in1030.8 mb 0.00 in0.0 mm 0.00 in/hr0.0 mm/hr 0.00 in0.0 mm
03:55 AM 19.6°F-6.9°C 8.7°F-12.9°C 62% Calm Calm -- 30.44 in1030.8 mb 0.00 in0.0 mm 0.00 in/hr0.0 mm/hr 0.00 in0.0 mm
03:54 AM 19.6°F-6.9°C 8.7°F-12.9°C 62% Calm Calm -- 30.44 in1030.8 mb 0.00 in0.0 mm 0.00 in/hr0.0 mm/hr 0.00 in0.0 mm
03:53 AM 19.6°F-6.9°C 8.7°F-12.9°C 62% Calm Calm -- 30.44 in1030.8 mb 0.00 in0.0 mm 0.00 in/hr0.0 mm/hr 0.00 in0.0 mm
03:52 AM 19.6°F-6.9°C 8.7°F-12.9°C 62% Calm Calm -- 30.43 in1030.5 mb 0.00 in0.0 mm 0.00 in/hr0.0 mm/hr 0.00 in0.0 mm
03:51 AM 19.6°F-6.9°C 8.7°F-12.9°C 62% Calm Calm -- 30.44 in1030.8 mb 0.00 in0.0 mm 0.00 in/hr0.0 mm/hr 0.00 in0.0 mm
03:50 AM 19.6°F-6.9°C 8.7°F-12.9°C 62% Calm Calm -- 30.44 in1030.8 mb 0.00 in0.0 mm 0.00 in/hr0.0 mm/hr 0.00 in0.0 mm
03:49 AM 19.6°F-6.9°C 8.7°F-12.9°C 62% Calm Calm -- 30.44 in1030.8 mb 0.00 in0.0 mm 0.00 in/hr0.0 mm/hr 0.00 in0.0 mm
03:48 AM 19.6°F-6.9°C 8.7°F-12.9°C 62% Calm Calm -- 30.44 in1030.8 mb 0.00 in0.0 mm 0.00 in/hr0.0 mm/hr 0.00 in0.0 mm
03:47 AM 19.6°F-6.9°C 8.7°F-12.9°C 62% Calm Calm -- 30.44 in1030.8 mb 0.00 in0.0 mm 0.00 in/hr0.0 mm/hr 0.00 in0.0 mm
03:46 AM 19.8°F-6.8°C 8.9°F-12.8°C 62% Calm Calm -- 30.44 in1030.8 mb 0.00 in0.0 mm 0.00 in/hr0.0 mm/hr 0.00 in0.0 mm
03:45 AM 19.8°F-6.8°C 8.9°F-12.8°C 62% Calm Calm -- 30.44 in1030.8 mb 0.00 in0.0 mm 0.00 in/hr0.0 mm/hr 0.00 in0.0 mm
03:44 AM 19.8°F-6.8°C 8.9°F-12.8°C 62% Calm Calm -- 30.43 in1030.5 mb 0.00 in0.0 mm 0.00 in/hr0.0 mm/hr 0.00 in0.0 mm
03:43 AM 19.8°F-6.8°C 8.9°F-12.8°C 62% Calm Calm -- 30.44 in1030.8 mb 0.00 in0.0 mm 0.00 in/hr0.0 mm/hr 0.00 in0.0 mm
03:42 AM 19.8°F-6.8°C 8.9°F-12.8°C 62% Calm Calm -- 30.44 in1030.8 mb 0.00 in0.0 mm 0.00 in/hr0.0 mm/hr 0.00 in0.0 mm
03:41 AM 19.8°F-6.8°C 8.9°F-12.8°C 62% Calm Calm -- 30.44 in1030.8 mb 0.00 in0.0 mm 0.00 in/hr0.0 mm/hr 0.00 in0.0 mm
03:40 AM 19.8°F-6.8°C 8.9°F-12.8°C 62% Calm Calm -- 30.44 in1030.8 mb 0.00 in0.0 mm 0.00 in/hr0.0 mm/hr 0.00 in0.0 mm
03:39 AM 19.8°F-6.8°C 8.9°F-12.8°C 62% Calm Calm -- 30.43 in1030.5 mb 0.00 in0.0 mm 0.00 in/hr0.0 mm/hr 0.00 in0.0 mm
03:38 AM 19.9°F-6.7°C 9.1°F-12.7°C 62% Calm Calm -- 30.44 in1030.8 mb 0.00 in0.0 mm 0.00 in/hr0.0 mm/hr 0.00 in0.0 mm
03:37 AM 19.9°F-6.7°C 9.1°F-12.7°C 62% Calm Calm -- 30.44 in1030.8 mb 0.00 in0.0 mm 0.00 in/hr0.0 mm/hr 0.00 in0.0 mm
03:36 AM 20.1°F-6.6°C 9.2°F-12.7°C 62% Calm Calm -- 30.44 in1030.8 mb 0.00 in0.0 mm 0.00 in/hr0.0 mm/hr 0.00 in0.0 mm
03:35 AM 20.1°F-6.6°C 9.2°F-12.7°C 62% Calm Calm -- 30.44 in1030.8 mb 0.00 in0.0 mm 0.00 in/hr0.0 mm/hr 0.00 in0.0 mm
03:34 AM 19.8°F-6.8°C 8.9°F-12.8°C 62% Calm Calm -- 30.44 in1030.8 mb 0.00 in0.0 mm 0.00 in/hr0.0 mm/hr 0.00 in0.0 mm
03:33 AM 19.8°F-6.8°C 8.9°F-12.8°C 62% Calm Calm -- 30.44 in1030.8 mb 0.00 in0.0 mm 0.00 in/hr0.0 mm/hr 0.00 in0.0 mm
03:32 AM 19.8°F-6.8°C 8.9°F-12.8°C 62% Calm Calm -- 30.44 in1030.8 mb 0.00 in0.0 mm 0.00 in/hr0.0 mm/hr 0.00 in0.0 mm
03:31 AM 19.8°F-6.8°C 8.9°F-12.8°C 62% Calm Calm -- 30.44 in1030.8 mb 0.00 in0.0 mm 0.00 in/hr0.0 mm/hr 0.00 in0.0 mm
03:30 AM 19.8°F-6.8°C 8.9°F-12.8°C 62% Calm Calm -- 30.44 in1030.8 mb 0.00 in0.0 mm 0.00 in/hr0.0 mm/hr 0.00 in0.0 mm
03:29 AM 19.8°F-6.8°C 8.5°F-13.1°C 61% Calm Calm -- 30.44 in1030.8 mb 0.00 in0.0 mm 0.00 in/hr0.0 mm/hr 0.00 in0.0 mm
03:28 AM 19.8°F-6.8°C 8.5°F-13.1°C 61% Calm Calm -- 30.44 in1030.8 mb 0.00 in0.0 mm 0.00 in/hr0.0 mm/hr 0.00 in0.0 mm
03:27 AM 19.8°F-6.8°C 8.5°F-13.1°C 61% Calm Calm -- 30.45 in1031.2 mb 0.00 in0.0 mm 0.00 in/hr0.0 mm/hr 0.00 in0.0 mm
03:26 AM 19.9°F-6.7°C 8.7°F-12.9°C 61% Calm Calm -- 30.44 in1030.8 mb 0.00 in0.0 mm 0.00 in/hr0.0 mm/hr 0.00 in0.0 mm
03:25 AM 19.9°F-6.7°C 8.7°F-12.9°C 61% Calm Calm -- 30.44 in1030.8 mb 0.00 in0.0 mm 0.00 in/hr0.0 mm/hr 0.00 in0.0 mm
03:24 AM 19.9°F-6.7°C 8.7°F-12.9°C 61% Calm Calm -- 30.44 in1030.8 mb 0.00 in0.0 mm 0.00 in/hr0.0 mm/hr 0.00 in0.0 mm
03:23 AM 20.1°F-6.6°C 9.2°F-12.7°C 62% Calm Calm -- 30.45 in1031.2 mb 0.00 in0.0 mm 0.00 in/hr0.0 mm/hr 0.00 in0.0 mm
03:22 AM 20.1°F-6.6°C 9.2°F-12.7°C 62% Calm Calm -- 30.44 in1030.8 mb 0.00 in0.0 mm 0.00 in/hr0.0 mm/hr 0.00 in0.0 mm
03:21 AM 20.1°F-6.6°C 8.9°F-12.8°C 61% Calm Calm -- 30.44 in1030.8 mb 0.00 in0.0 mm 0.00 in/hr0.0 mm/hr 0.00 in0.0 mm
03:20 AM 19.9°F-6.7°C 8.7°F-12.9°C 61% Calm Calm -- 30.44 in1030.8 mb 0.00 in0.0 mm 0.00 in/hr0.0 mm/hr 0.00 in0.0 mm
03:19 AM 20.1°F-6.6°C 8.9°F-12.8°C 61% Calm Calm -- 30.44 in1030.8 mb 0.00 in0.0 mm 0.00 in/hr0.0 mm/hr 0.00 in0.0 mm
03:18 AM 19.9°F-6.7°C 8.7°F-12.9°C 61% Calm Calm -- 30.44 in1030.8 mb 0.00 in0.0 mm 0.00 in/hr0.0 mm/hr 0.00 in0.0 mm
03:17 AM 19.9°F-6.7°C 8.7°F-12.9°C 61% Calm Calm -- 30.45 in1031.2 mb 0.00 in0.0 mm 0.00 in/hr0.0 mm/hr 0.00 in0.0 mm
03:16 AM 19.9°F-6.7°C 8.7°F-12.9°C 61% Calm Calm -- 30.44 in1030.8 mb 0.00 in0.0 mm 0.00 in/hr0.0 mm/hr 0.00 in0.0 mm
03:15 AM 19.9°F-6.7°C 8.7°F-12.9°C 61% Calm Calm -- 30.44 in1030.8 mb 0.00 in0.0 mm 0.00 in/hr0.0 mm/hr 0.00 in0.0 mm
03:14 AM 20.1°F-6.6°C 8.9°F-12.8°C 61% Calm Calm -- 30.44 in1030.8 mb 0.00 in0.0 mm 0.00 in/hr0.0 mm/hr 0.00 in0.0 mm
03:13 AM 20.1°F-6.6°C 8.9°F-12.8°C 61% Calm Calm -- 30.45 in1031.2 mb 0.00 in0.0 mm 0.00 in/hr0.0 mm/hr 0.00 in0.0 mm
03:12 AM 20.1°F-6.6°C 8.9°F-12.8°C 61% Calm Calm -- 30.44 in1030.8 mb 0.00 in0.0 mm 0.00 in/hr0.0 mm/hr 0.00 in0.0 mm
03:11 AM 20.1°F-6.6°C 8.9°F-12.8°C 61% Calm Calm -- 30.45 in1031.2 mb 0.00 in0.0 mm 0.00 in/hr0.0 mm/hr 0.00 in0.0 mm
03:10 AM 20.1°F-6.6°C 8.9°F-12.8°C 61% Calm Calm -- 30.44 in1030.8 mb 0.00 in0.0 mm 0.00 in/hr0.0 mm/hr 0.00 in0.0 mm
03:09 AM 20.1°F-6.6°C 8.5°F-13.1°C 60% Calm Calm -- 30.45 in1031.2 mb 0.00 in0.0 mm 0.00 in/hr0.0 mm/hr 0.00 in0.0 mm
03:08 AM 20.3°F-6.5°C 8.7°F-12.9°C 60% Calm Calm -- 30.44 in1030.8 mb 0.00 in0.0 mm 0.00 in/hr0.0 mm/hr 0.00 in0.0 mm
03:07 AM 20.3°F-6.5°C 8.7°F-12.9°C 60% Calm Calm -- 30.45 in1031.2 mb 0.00 in0.0 mm 0.00 in/hr0.0 mm/hr 0.00 in0.0 mm
03:06 AM 20.3°F-6.5°C 8.7°F-12.9°C 60% Calm Calm -- 30.44 in1030.8 mb 0.00 in0.0 mm 0.00 in/hr0.0 mm/hr 0.00 in0.0 mm
03:05 AM 20.3°F-6.5°C 8.7°F-12.9°C 60% Calm Calm -- 30.45 in1031.2 mb 0.00 in0.0 mm 0.00 in/hr0.0 mm/hr 0.00 in0.0 mm
03:04 AM 20.3°F-6.5°C 8.7°F-12.9°C 60% Calm Calm -- 30.45 in1031.2 mb 0.00 in0.0 mm 0.00 in/hr0.0 mm/hr 0.00 in0.0 mm
03:03 AM 20.3°F-6.5°C 8.7°F-12.9°C 60% Calm Calm -- 30.44 in1030.8 mb 0.00 in0.0 mm 0.00 in/hr0.0 mm/hr 0.00 in0.0 mm
03:02 AM 20.3°F-6.5°C 8.7°F-12.9°C 60% Calm Calm -- 30.44 in1030.8 mb 0.00 in0.0 mm 0.00 in/hr0.0 mm/hr 0.00 in0.0 mm
03:01 AM 20.3°F-6.5°C 8.7°F-12.9°C 60% Calm Calm -- 30.45 in1031.2 mb 0.00 in0.0 mm 0.00 in/hr0.0 mm/hr 0.00 in0.0 mm
03:00 AM 20.3°F-6.5°C 8.7°F-12.9°C 60% Calm Calm -- 30.45 in1031.2 mb 0.00 in0.0 mm 0.00 in/hr0.0 mm/hr 0.00 in0.0 mm
02:59 AM 20.5°F-6.4°C 8.9°F-12.8°C 60% Calm Calm -- 30.45 in1031.2 mb 0.00 in0.0 mm 0.00 in/hr0.0 mm/hr 0.00 in0.0 mm
02:58 AM 20.5°F-6.4°C 8.9°F-12.8°C 60% Calm Calm -- 30.45 in1031.2 mb 0.00 in0.0 mm 0.00 in/hr0.0 mm/hr 0.00 in0.0 mm
02:57 AM 20.5°F-6.4°C 8.9°F-12.8°C 60% Calm Calm -- 30.45 in1031.2 mb 0.00 in0.0 mm 0.00 in/hr0.0 mm/hr 0.00 in0.0 mm
02:56 AM 20.3°F-6.5°C 8.7°F-12.9°C 60% Calm Calm -- 30.45 in1031.2 mb 0.00 in0.0 mm 0.00 in/hr0.0 mm/hr 0.00 in0.0 mm
02:55 AM 20.3°F-6.5°C 8.7°F-12.9°C 60% Calm Calm -- 30.45 in1031.2 mb 0.00 in0.0 mm 0.00 in/hr0.0 mm/hr 0.00 in0.0 mm
02:54 AM 20.3°F-6.5°C 8.7°F-12.9°C 60% Calm Calm -- 30.44 in1030.8 mb 0.00 in0.0 mm 0.00 in/hr0.0 mm/hr 0.00 in0.0 mm
02:53 AM 20.5°F-6.4°C 8.9°F-12.8°C 60% Calm Calm -- 30.45 in1031.2 mb 0.00 in0.0 mm 0.00 in/hr0.0 mm/hr 0.00 in0.0 mm
02:52 AM 20.5°F-6.4°C 8.9°F-12.8°C 60% Calm Calm -- 30.45 in1031.2 mb 0.00 in0.0 mm 0.00 in/hr0.0 mm/hr 0.00 in0.0 mm
02:51 AM 20.5°F-6.4°C 8.9°F-12.8°C 60% Calm Calm -- 30.45 in1031.2 mb 0.00 in0.0 mm 0.00 in/hr0.0 mm/hr 0.00 in0.0 mm
02:50 AM 20.5°F-6.4°C 8.9°F-12.8°C 60% Calm Calm -- 30.45 in1031.2 mb 0.00 in0.0 mm 0.00 in/hr0.0 mm/hr 0.00 in0.0 mm
02:49 AM 20.7°F-6.3°C 9.0°F-12.8°C 60% Calm Calm -- 30.45 in1031.2 mb 0.00 in0.0 mm 0.00 in/hr0.0 mm/hr 0.00 in0.0 mm
02:48 AM 20.7°F-6.3°C 8.7°F-12.9°C 59% Calm Calm -- 30.45 in1031.2 mb 0.00 in0.0 mm 0.00 in/hr0.0 mm/hr 0.00 in0.0 mm
02:47 AM 20.8°F-6.2°C 8.8°F-12.9°C 59% Calm Calm -- 30.45 in1031.2 mb 0.00 in0.0 mm 0.00 in/hr0.0 mm/hr 0.00 in0.0 mm
02:46 AM 20.8°F-6.2°C 8.8°F-12.9°C 59% Calm Calm -- 30.44 in1030.8 mb 0.00 in0.0 mm 0.00 in/hr0.0 mm/hr 0.00 in0.0 mm
02:45 AM 20.8°F-6.2°C 8.4°F-13.1°C 58% Calm Calm -- 30.45 in1031.2 mb 0.00 in0.0 mm 0.00 in/hr0.0 mm/hr 0.00 in0.0 mm
02:44 AM 21.0°F-6.1°C 8.6°F-13.0°C 58% Calm Calm -- 30.45 in1031.2 mb 0.00 in0.0 mm 0.00 in/hr0.0 mm/hr 0.00 in0.0 mm
02:43 AM 21.0°F-6.1°C 8.6°F-13.0°C 58% Calm Calm -- 30.45 in1031.2 mb 0.00 in0.0 mm 0.00 in/hr0.0 mm/hr 0.00 in0.0 mm
02:42 AM 21.0°F-6.1°C 8.6°F-13.0°C 58% Calm Calm -- 30.45 in1031.2 mb 0.00 in0.0 mm 0.00 in/hr0.0 mm/hr 0.00 in0.0 mm
02:41 AM 21.0°F-6.1°C 8.6°F-13.0°C 58% Calm Calm -- 30.45 in1031.2 mb 0.00 in0.0 mm 0.00 in/hr0.0 mm/hr 0.00 in0.0 mm
02:40 AM 20.8°F-6.2°C 8.4°F-13.1°C 58% Calm Calm -- 30.45 in1031.2 mb 0.00 in0.0 mm 0.00 in/hr0.0 mm/hr 0.00 in0.0 mm
02:39 AM 21.0°F-6.1°C 8.6°F-13.0°C 58% Calm Calm -- 30.45 in1031.2 mb 0.00 in0.0 mm 0.00 in/hr0.0 mm/hr 0.00 in0.0 mm
02:38 AM 21.0°F-6.1°C 8.6°F-13.0°C 58% Calm Calm -- 30.45 in1031.2 mb 0.00 in0.0 mm 0.00 in/hr0.0 mm/hr 0.00 in0.0 mm
02:37 AM 20.8°F-6.2°C 8.4°F-13.1°C 58% Calm Calm -- 30.45 in1031.2 mb 0.00 in0.0 mm 0.00 in/hr0.0 mm/hr 0.00 in0.0 mm
02:36 AM 20.8°F-6.2°C 8.1°F-13.3°C 57% Calm Calm -- 30.45 in1031.2 mb 0.00 in0.0 mm 0.00 in/hr0.0 mm/hr 0.00 in0.0 mm
02:35 AM 20.8°F-6.2°C 8.1°F-13.3°C 57% Calm Calm -- 30.45 in1031.2 mb 0.00 in0.0 mm 0.00 in/hr0.0 mm/hr 0.00 in0.0 mm
02:34 AM 20.8°F-6.2°C 8.1°F-13.3°C 57% Calm Calm -- 30.45 in1031.2 mb 0.00 in0.0 mm 0.00 in/hr0.0 mm/hr 0.00 in0.0 mm
02:33 AM 20.8°F-6.2°C 8.1°F-13.3°C 57% Calm Calm -- 30.45 in1031.2 mb 0.00 in0.0 mm 0.00 in/hr0.0 mm/hr 0.00 in0.0 mm
02:32 AM 21.0°F-6.1°C 8.2°F-13.2°C 57% Calm Calm -- 30.45 in1031.2 mb 0.00 in0.0 mm 0.00 in/hr0.0 mm/hr 0.00 in0.0 mm
02:31 AM 21.2°F-6.0°C 8.0°F-13.3°C 56% Calm Calm -- 30.45 in1031.2 mb 0.00 in0.0 mm 0.00 in/hr0.0 mm/hr 0.00 in0.0 mm
02:30 AM 21.2°F-6.0°C 8.0°F-13.3°C 56% Calm Calm -- 30.45 in1031.2 mb 0.00 in0.0 mm 0.00 in/hr0.0 mm/hr 0.00 in0.0 mm
02:29 AM 21.0°F-6.1°C 8.2°F-13.2°C 57% Calm Calm -- 30.45 in1031.2 mb 0.00 in0.0 mm 0.00 in/hr0.0 mm/hr 0.00 in0.0 mm
02:28 AM 21.0°F-6.1°C 8.2°F-13.2°C 57% Calm Calm -- 30.45 in1031.2 mb 0.00 in0.0 mm 0.00 in/hr0.0 mm/hr 0.00 in0.0 mm
02:27 AM 21.0°F-6.1°C 8.2°F-13.2°C 57% Calm Calm -- 30.46 in1031.5 mb 0.00 in0.0 mm 0.00 in/hr0.0 mm/hr 0.00 in0.0 mm
02:26 AM 21.0°F-6.1°C 8.2°F-13.2°C 57% Calm Calm -- 30.45 in1031.2 mb 0.00 in0.0 mm 0.00 in/hr0.0 mm/hr 0.00 in0.0 mm
02:25 AM 21.0°F-6.1°C 8.2°F-13.2°C 57% Calm Calm -- 30.46 in1031.5 mb 0.00 in0.0 mm 0.00 in/hr0.0 mm/hr 0.00 in0.0 mm
02:24 AM 21.2°F-6.0°C 8.0°F-13.3°C 56% Calm Calm -- 30.46 in1031.5 mb 0.00 in0.0 mm 0.00 in/hr0.0 mm/hr 0.00 in0.0 mm
02:23 AM 21.2°F-6.0°C 8.0°F-13.3°C 56% Calm Calm -- 30.46 in1031.5 mb 0.00 in0.0 mm 0.00 in/hr0.0 mm/hr 0.00 in0.0 mm
02:22 AM 21.2°F-6.0°C 8.0°F-13.3°C 56% Calm Calm -- 30.46 in1031.5 mb 0.00 in0.0 mm 0.00 in/hr0.0 mm/hr 0.00 in0.0 mm
02:21 AM 21.2°F-6.0°C 8.0°F-13.3°C 56% Calm Calm -- 30.45 in1031.2 mb 0.00 in0.0 mm 0.00 in/hr0.0 mm/hr 0.00 in0.0 mm
02:20 AM 21.2°F-6.0°C 8.0°F-13.3°C 56% Calm Calm -- 30.45 in1031.2 mb 0.00 in0.0 mm 0.00 in/hr0.0 mm/hr 0.00 in0.0 mm
02:19 AM 21.2°F-6.0°C 8.0°F-13.3°C 56% Calm Calm -- 30.45 in1031.2 mb 0.00 in0.0 mm 0.00 in/hr0.0 mm/hr 0.00 in0.0 mm
02:18 AM 21.2°F-6.0°C 8.0°F-13.3°C 56% Calm Calm -- 30.45 in1031.2 mb 0.00 in0.0 mm 0.00 in/hr0.0 mm/hr 0.00 in0.0 mm
02:17 AM 21.2°F-6.0°C 8.0°F-13.3°C 56% Calm Calm -- 30.45 in1031.2 mb 0.00 in0.0 mm 0.00 in/hr0.0 mm/hr 0.00 in0.0 mm
02:16 AM 21.2°F-6.0°C 8.0°F-13.3°C 56% Calm Calm -- 30.45 in1031.2 mb 0.00 in0.0 mm 0.00 in/hr0.0 mm/hr 0.00 in0.0 mm
02:15 AM 21.2°F-6.0°C 8.0°F-13.3°C 56% Calm Calm -- 30.45 in1031.2 mb 0.00 in0.0 mm 0.00 in/hr0.0 mm/hr 0.00 in0.0 mm
02:14 AM 21.2°F-6.0°C 8.0°F-13.3°C 56% Calm Calm -- 30.45 in1031.2 mb 0.00 in0.0 mm 0.00 in/hr0.0 mm/hr 0.00 in0.0 mm
02:13 AM 21.0°F-6.1°C 8.2°F-13.2°C 57% Calm Calm -- 30.46 in1031.5 mb 0.00 in0.0 mm 0.00 in/hr0.0 mm/hr 0.00 in0.0 mm
02:12 AM 21.0°F-6.1°C 8.2°F-13.2°C 57% Calm Calm -- 30.45 in1031.2 mb 0.00 in0.0 mm 0.00 in/hr0.0 mm/hr 0.00 in0.0 mm
02:11 AM 21.2°F-6.0°C 7.6°F-13.6°C 55% Calm Calm -- 30.45 in1031.2 mb 0.00 in0.0 mm 0.00 in/hr0.0 mm/hr 0.00 in0.0 mm
02:10 AM 21.2°F-6.0°C 7.6°F-13.6°C 55% Calm Calm -- 30.45 in1031.2 mb 0.00 in0.0 mm 0.00 in/hr0.0 mm/hr 0.00 in0.0 mm
02:09 AM 21.2°F-6.0°C 7.6°F-13.6°C 55% Calm Calm -- 30.45 in1031.2 mb 0.00 in0.0 mm 0.00 in/hr0.0 mm/hr 0.00 in0.0 mm
02:08 AM 21.4°F-5.9°C 7.8°F-13.4°C 55% Calm Calm -- 30.45 in1031.2 mb 0.00 in0.0 mm 0.00 in/hr0.0 mm/hr 0.00 in0.0 mm
02:07 AM 21.4°F-5.9°C 8.2°F-13.2°C 56% Calm Calm -- 30.45 in1031.2 mb 0.00 in0.0 mm 0.00 in/hr0.0 mm/hr 0.00 in0.0 mm
02:06 AM 21.4°F-5.9°C 8.2°F-13.2°C 56% Calm Calm -- 30.44 in1030.8 mb 0.00 in0.0 mm 0.00 in/hr0.0 mm/hr 0.00 in0.0 mm
02:05 AM 21.4°F-5.9°C 8.2°F-13.2°C 56% Calm Calm -- 30.45 in1031.2 mb 0.00 in0.0 mm 0.00 in/hr0.0 mm/hr 0.00 in0.0 mm
02:04 AM 21.4°F-5.9°C 8.2°F-13.2°C 56% Calm Calm -- 30.45 in1031.2 mb 0.00 in0.0 mm 0.00 in/hr0.0 mm/hr 0.00 in0.0 mm
02:03 AM 21.4°F-5.9°C 8.2°F-13.2°C 56% Calm Calm -- 30.45 in1031.2 mb 0.00 in0.0 mm 0.00 in/hr0.0 mm/hr 0.00 in0.0 mm
02:02 AM 21.4°F-5.9°C 8.2°F-13.2°C 56% Calm Calm -- 30.45 in1031.2 mb 0.00 in0.0 mm 0.00 in/hr0.0 mm/hr 0.00 in0.0 mm
02:01 AM 21.2°F-6.0°C 8.0°F-13.3°C 56% Calm Calm -- 30.45 in1031.2 mb 0.00 in0.0 mm 0.00 in/hr0.0 mm/hr 0.00 in0.0 mm
02:00 AM 21.0°F-6.1°C 8.2°F-13.2°C 57% Calm Calm -- 30.45 in1031.2 mb 0.00 in0.0 mm 0.00 in/hr0.0 mm/hr 0.00 in0.0 mm
01:59 AM 21.0°F-6.1°C 8.2°F-13.2°C 57% Calm Calm -- 30.45 in1031.2 mb 0.00 in0.0 mm 0.00 in/hr0.0 mm/hr 0.00 in0.0 mm
01:58 AM 20.8°F-6.2°C 8.1°F-13.3°C 57% Calm Calm -- 30.45 in1031.2 mb 0.00 in0.0 mm 0.00 in/hr0.0 mm/hr 0.00 in0.0 mm
01:57 AM 20.7°F-6.3°C 7.9°F-13.4°C 57% Calm Calm -- 30.45 in1031.2 mb 0.00 in0.0 mm 0.00 in/hr0.0 mm/hr 0.00 in0.0 mm
01:56 AM 20.8°F-6.2°C 7.7°F-13.5°C 56% Calm Calm -- 30.45 in1031.2 mb 0.00 in0.0 mm 0.00 in/hr0.0 mm/hr 0.00 in0.0 mm
01:55 AM 20.8°F-6.2°C 7.7°F-13.5°C 56% Calm Calm -- 30.45 in1031.2 mb 0.00 in0.0 mm 0.00 in/hr0.0 mm/hr 0.00 in0.0 mm
01:54 AM 20.8°F-6.2°C 7.7°F-13.5°C 56% Calm Calm -- 30.45 in1031.2 mb 0.00 in0.0 mm 0.00 in/hr0.0 mm/hr 0.00 in0.0 mm
01:53 AM 20.8°F-6.2°C 7.7°F-13.5°C 56% Calm Calm -- 30.45 in1031.2 mb 0.00 in0.0 mm 0.00 in/hr0.0 mm/hr 0.00 in0.0 mm
01:52 AM 20.8°F-6.2°C 7.7°F-13.5°C 56% Calm Calm -- 30.45 in1031.2 mb 0.00 in0.0 mm 0.00 in/hr0.0 mm/hr 0.00 in0.0 mm
01:51 AM 20.8°F-6.2°C 7.7°F-13.5°C 56% Calm Calm -- 30.44 in1030.8 mb 0.00 in0.0 mm 0.00 in/hr0.0 mm/hr 0.00 in0.0 mm
01:50 AM 20.8°F-6.2°C 7.7°F-13.5°C 56% Calm Calm -- 30.45 in1031.2 mb 0.00 in0.0 mm 0.00 in/hr0.0 mm/hr 0.00 in0.0 mm
01:49 AM 20.8°F-6.2°C 7.7°F-13.5°C 56% Calm Calm -- 30.45 in1031.2 mb 0.00 in0.0 mm 0.00 in/hr0.0 mm/hr 0.00 in0.0 mm
01:48 AM 20.8°F-6.2°C 7.7°F-13.5°C 56% Calm Calm -- 30.45 in1031.2 mb 0.00 in0.0 mm 0.00 in/hr0.0 mm/hr 0.00 in0.0 mm
01:47 AM 20.8°F-6.2°C 7.3°F-13.7°C 55% Calm Calm -- 30.45 in1031.2 mb 0.00 in0.0 mm 0.00 in/hr0.0 mm/hr 0.00 in0.0 mm
01:46 AM 20.8°F-6.2°C 7.3°F-13.7°C 55% Calm Calm -- 30.45 in1031.2 mb 0.00 in0.0 mm 0.00 in/hr0.0 mm/hr 0.00 in0.0 mm
01:45 AM 21.0°F-6.1°C 7.4°F-13.7°C 55% Calm Calm -- 30.45 in1031.2 mb 0.00 in0.0 mm 0.00 in/hr0.0 mm/hr 0.00 in0.0 mm
01:44 AM 21.0°F-6.1°C 7.4°F-13.7°C 55% Calm Calm -- 30.45 in1031.2 mb 0.00 in0.0 mm 0.00 in/hr0.0 mm/hr 0.00 in0.0 mm
01:43 AM 21.0°F-6.1°C 7.4°F-13.7°C 55% Calm Calm -- 30.45 in1031.2 mb 0.00 in0.0 mm 0.00 in/hr0.0 mm/hr 0.00 in0.0 mm
01:42 AM 21.0°F-6.1°C 7.4°F-13.7°C 55% Calm Calm -- 30.45 in1031.2 mb 0.00 in0.0 mm 0.00 in/hr0.0 mm/hr 0.00 in0.0 mm
01:41 AM 21.2°F-6.0°C 6.8°F-14.0°C 53% Calm Calm -- 30.45 in1031.2 mb 0.00 in0.0 mm 0.00 in/hr0.0 mm/hr 0.00 in0.0 mm
01:40 AM 21.2°F-6.0°C 6.8°F-14.0°C 53% Calm Calm -- 30.45 in1031.2 mb 0.00 in0.0 mm 0.00 in/hr0.0 mm/hr 0.00 in0.0 mm
01:39 AM 21.2°F-6.0°C 6.8°F-14.0°C 53% Calm Calm -- 30.45 in1031.2 mb 0.00 in0.0 mm 0.00 in/hr0.0 mm/hr 0.00 in0.0 mm
01:38 AM 21.4°F-5.9°C 7.0°F-13.9°C 53% Calm Calm -- 30.45 in1031.2 mb 0.00 in0.0 mm 0.00 in/hr0.0 mm/hr 0.00 in0.0 mm
01:37 AM 21.2°F-6.0°C 6.8°F-14.0°C 53% Calm Calm -- 30.45 in1031.2 mb 0.00 in0.0 mm 0.00 in/hr0.0 mm/hr 0.00 in0.0 mm
01:36 AM 21.0°F-6.1°C 7.0°F-13.9°C 54% Calm Calm -- 30.45 in1031.2 mb 0.00 in0.0 mm 0.00 in/hr0.0 mm/hr 0.00 in0.0 mm
01:35 AM 21.0°F-6.1°C 7.0°F-13.9°C 54% Calm Calm -- 30.45 in1031.2 mb 0.00 in0.0 mm 0.00 in/hr0.0 mm/hr 0.00 in0.0 mm
01:34 AM 21.2°F-6.0°C 6.8°F-14.0°C 53% Calm Calm -- 30.45 in1031.2 mb 0.00 in0.0 mm 0.00 in/hr0.0 mm/hr 0.00 in0.0 mm
01:33 AM 21.2°F-6.0°C 6.8°F-14.0°C 53% Calm Calm -- 30.45 in1031.2 mb 0.00 in0.0 mm 0.00 in/hr0.0 mm/hr 0.00 in0.0 mm
01:32 AM 21.2°F-6.0°C 6.8°F-14.0°C 53% Calm Calm -- 30.45 in1031.2 mb 0.00 in0.0 mm 0.00 in/hr0.0 mm/hr 0.00 in0.0 mm
01:31 AM 21.4°F-5.9°C 7.0°F-13.9°C 53% Calm Calm -- 30.45 in1031.2 mb 0.00 in0.0 mm 0.00 in/hr0.0 mm/hr 0.00 in0.0 mm
01:30 AM 21.4°F-5.9°C 7.0°F-13.9°C 53% Calm Calm -- 30.45 in1031.2 mb 0.00 in0.0 mm 0.00 in/hr0.0 mm/hr 0.00 in0.0 mm
01:29 AM 21.6°F-5.8°C 6.7°F-14.1°C 52% Calm Calm -- 30.45 in1031.2 mb 0.00 in0.0 mm 0.00 in/hr0.0 mm/hr 0.00 in0.0 mm
01:28 AM 21.6°F-5.8°C 6.7°F-14.1°C 52% Calm Calm -- 30.45 in1031.2 mb 0.00 in0.0 mm 0.00 in/hr0.0 mm/hr 0.00 in0.0 mm
01:27 AM 21.7°F-5.7°C 6.9°F-13.9°C 52% Calm Calm -- 30.45 in1031.2 mb 0.00 in0.0 mm 0.00 in/hr0.0 mm/hr 0.00 in0.0 mm
01:26 AM 21.7°F-5.7°C 6.9°F-13.9°C 52% Calm Calm -- 30.44 in1030.8 mb 0.00 in0.0 mm 0.00 in/hr0.0 mm/hr 0.00 in0.0 mm
01:25 AM 21.7°F-5.7°C 6.9°F-13.9°C 52% Calm Calm -- 30.45 in1031.2 mb 0.00 in0.0 mm 0.00 in/hr0.0 mm/hr 0.00 in0.0 mm
01:24 AM 21.9°F-5.6°C 7.0°F-13.9°C 52% Calm Calm -- 30.44 in1030.8 mb 0.00 in0.0 mm 0.00 in/hr0.0 mm/hr 0.00 in0.0 mm
01:23 AM 21.7°F-5.7°C 6.9°F-13.9°C 52% Calm Calm -- 30.45 in1031.2 mb 0.00 in0.0 mm 0.00 in/hr0.0 mm/hr 0.00 in0.0 mm
01:22 AM 21.7°F-5.7°C 6.5°F-14.2°C 51% Calm Calm -- 30.45 in1031.2 mb 0.00 in0.0 mm 0.00 in/hr0.0 mm/hr 0.00 in0.0 mm
01:20 AM 21.7°F-5.7°C 6.4°F-14.2°C 51% Calm Calm -- 30.44 in1030.8 mb 0.00 in0.0 mm 0.00 in/hr0.0 mm/hr 0.00 in0.0 mm
01:19 AM 21.7°F-5.7°C 6.5°F-14.2°C 51% Calm Calm -- 30.45 in1031.2 mb 0.00 in0.0 mm 0.00 in/hr0.0 mm/hr 0.00 in0.0 mm
01:18 AM 21.9°F-5.6°C 6.6°F-14.1°C 51% Calm Calm -- 30.45 in1031.2 mb 0.00 in0.0 mm 0.00 in/hr0.0 mm/hr 0.00 in0.0 mm
01:17 AM 21.9°F-5.6°C 6.6°F-14.1°C 51% Calm Calm -- 30.45 in1031.2 mb 0.00 in0.0 mm 0.00 in/hr0.0 mm/hr 0.00 in0.0 mm
01:16 AM 21.9°F-5.6°C 6.6°F-14.1°C 51% Calm Calm -- 30.45 in1031.2 mb 0.00 in0.0 mm 0.00 in/hr0.0 mm/hr 0.00 in0.0 mm
01:15 AM 21.9°F-5.6°C 6.6°F-14.1°C 51% Calm Calm -- 30.45 in1031.2 mb 0.00 in0.0 mm 0.00 in/hr0.0 mm/hr 0.00 in0.0 mm
01:14 AM 21.9°F-5.6°C 6.6°F-14.1°C 51% Calm Calm -- 30.45 in1031.2 mb 0.00 in0.0 mm 0.00 in/hr0.0 mm/hr 0.00 in0.0 mm
01:13 AM 21.9°F-5.6°C 6.6°F-14.1°C 51% Calm Calm -- 30.45 in1031.2 mb 0.00 in0.0 mm 0.00 in/hr0.0 mm/hr 0.00 in0.0 mm
01:12 AM 21.9°F-5.6°C 6.6°F-14.1°C 51% Calm Calm -- 30.45 in1031.2 mb 0.00 in0.0 mm 0.00 in/hr0.0 mm/hr 0.00 in0.0 mm
01:11 AM 22.1°F-5.5°C 6.8°F-14.0°C 51% Calm Calm -- 30.45 in1031.2 mb 0.00 in0.0 mm 0.00 in/hr0.0 mm/hr 0.00 in0.0 mm
01:10 AM 22.3°F-5.4°C 7.0°F-13.9°C 51% Calm Calm -- 30.45 in1031.2 mb 0.00 in0.0 mm 0.00 in/hr0.0 mm/hr 0.00 in0.0 mm
01:09 AM 22.5°F-5.3°C 7.1°F-13.8°C 51% Calm Calm -- 30.44 in1030.8 mb 0.00 in0.0 mm 0.00 in/hr0.0 mm/hr 0.00 in0.0 mm
01:08 AM 22.3°F-5.4°C 7.0°F-13.9°C 51% 0.1 mph S0.2 kmh S 0.8 mph1.3 kmh 30.45 in1031.2 mb 0.00 in0.0 mm 0.00 in/hr0.0 mm/hr 0.00 in0.0 mm
01:07 AM 22.3°F-5.4°C 7.4°F-13.7°C 52% 0.2 mph S0.3 kmh S 1.6 mph2.6 kmh 30.45 in1031.2 mb 0.00 in0.0 mm 0.00 in/hr0.0 mm/hr 0.00 in0.0 mm
01:06 AM 22.3°F-5.4°C 7.4°F-13.7°C 52% 0.3 mph S0.5 kmh S 1.6 mph2.6 kmh 30.45 in1031.2 mb 0.00 in0.0 mm 0.00 in/hr0.0 mm/hr 0.00 in0.0 mm
01:05 AM 22.3°F-5.4°C 7.4°F-13.7°C 52% 0.3 mph S0.5 kmh S 1.6 mph2.6 kmh 30.45 in1031.2 mb 0.00 in0.0 mm 0.00 in/hr0.0 mm/hr 0.00 in0.0 mm
01:04 AM 22.3°F-5.4°C 7.4°F-13.7°C 52% 0.2 mph S0.3 kmh S 1.6 mph2.6 kmh 30.45 in1031.2 mb 0.00 in0.0 mm 0.00 in/hr0.0 mm/hr 0.00 in0.0 mm
01:03 AM 22.3°F-5.4°C 7.4°F-13.7°C 52% 0.2 mph S0.3 kmh S 1.6 mph2.6 kmh 30.45 in1031.2 mb 0.00 in0.0 mm 0.00 in/hr0.0 mm/hr 0.00 in0.0 mm
01:02 AM 22.3°F-5.4°C 7.4°F-13.7°C 52% 0.3 mph S0.5 kmh S 1.6 mph2.6 kmh 30.45 in1031.2 mb 0.00 in0.0 mm 0.00 in/hr0.0 mm/hr 0.00 in0.0 mm
01:01 AM 22.3°F-5.4°C 7.4°F-13.7°C 52% 0.5 mph S0.8 kmh S 1.6 mph2.6 kmh 30.45 in1031.2 mb 0.00 in0.0 mm 0.00 in/hr0.0 mm/hr 0.00 in0.0 mm
01:00 AM 22.3°F-5.4°C 7.4°F-13.7°C 52% 0.5 mph S0.8 kmh S 1.6 mph2.6 kmh 30.45 in1031.2 mb 0.00 in0.0 mm 0.00 in/hr0.0 mm/hr 0.00 in0.0 mm
12:59 AM 22.3°F-5.4°C 7.0°F-13.9°C 51% 0.5 mph S0.8 kmh S 1.6 mph2.6 kmh 30.45 in1031.2 mb 0.00 in0.0 mm 0.00 in/hr0.0 mm/hr 0.00 in0.0 mm
12:58 AM 22.3°F-5.4°C 7.0°F-13.9°C 51% 0.5 mph S0.8 kmh S 1.6 mph2.6 kmh 30.45 in1031.2 mb 0.00 in0.0 mm 0.00 in/hr0.0 mm/hr 0.00 in0.0 mm
12:57 AM 22.3°F-5.4°C 7.0°F-13.9°C 51% 0.3 mph S0.5 kmh S 1.6 mph2.6 kmh 30.45 in1031.2 mb 0.00 in0.0 mm 0.00 in/hr0.0 mm/hr 0.00 in0.0 mm
12:56 AM 22.3°F-5.4°C 7.0°F-13.9°C 51% 0.3 mph S0.5 kmh S 1.6 mph2.6 kmh 30.44 in1030.8 mb 0.00 in0.0 mm 0.00 in/hr0.0 mm/hr 0.00 in0.0 mm
12:55 AM 22.5°F-5.3°C 7.1°F-13.8°C 51% 0.3 mph S0.5 kmh S 1.6 mph2.6 kmh 30.44 in1030.8 mb 0.00 in0.0 mm 0.00 in/hr0.0 mm/hr 0.00 in0.0 mm
12:54 AM 22.5°F-5.3°C 7.1°F-13.8°C 51% 0.3 mph S0.5 kmh S 2.4 mph3.9 kmh 30.44 in1030.8 mb 0.00 in0.0 mm 0.00 in/hr0.0 mm/hr 0.00 in0.0 mm
12:53 AM 22.6°F-5.2°C 7.3°F-13.7°C 51% 0.4 mph S0.6 kmh S 2.4 mph3.9 kmh 30.45 in1031.2 mb 0.00 in0.0 mm 0.00 in/hr0.0 mm/hr 0.00 in0.0 mm
12:52 AM 22.6°F-5.2°C 7.3°F-13.7°C 51% 0.4 mph S0.6 kmh S 2.4 mph3.9 kmh 30.45 in1031.2 mb 0.00 in0.0 mm 0.00 in/hr0.0 mm/hr 0.00 in0.0 mm
12:51 AM 22.8°F-5.1°C 7.5°F-13.6°C 51% 0.2 mph S0.3 kmh S 2.4 mph3.9 kmh 30.45 in1031.2 mb 0.00 in0.0 mm 0.00 in/hr0.0 mm/hr 0.00 in0.0 mm
12:50 AM 22.8°F-5.1°C 7.5°F-13.6°C 51% 0.2 mph S0.3 kmh S 2.4 mph3.9 kmh 30.45 in1031.2 mb 0.00 in0.0 mm 0.00 in/hr0.0 mm/hr 0.00 in0.0 mm
12:49 AM 23.0°F-5.0°C 7.2°F-13.8°C 50% 0.2 mph S0.3 kmh S 2.4 mph3.9 kmh 30.45 in1031.2 mb 0.00 in0.0 mm 0.00 in/hr0.0 mm/hr 0.00 in0.0 mm
12:48 AM 23.0°F-5.0°C 7.2°F-13.8°C 50% 0.4 mph S0.6 kmh S 2.4 mph3.9 kmh 30.44 in1030.8 mb 0.00 in0.0 mm 0.00 in/hr0.0 mm/hr 0.00 in0.0 mm
12:47 AM 23.2°F-4.9°C 7.4°F-13.7°C 50% 0.4 mph S0.6 kmh S 2.4 mph3.9 kmh 30.45 in1031.2 mb 0.00 in0.0 mm 0.00 in/hr0.0 mm/hr 0.00 in0.0 mm
12:46 AM 23.4°F-4.8°C 7.1°F-13.8°C 49% 0.7 mph SE1.1 kmh SE 2.4 mph3.9 kmh 30.44 in1030.8 mb 0.00 in0.0 mm 0.00 in/hr0.0 mm/hr 0.00 in0.0 mm
12:45 AM 23.5°F-4.7°C 7.2°F-13.8°C 49% 0.7 mph SE1.1 kmh SE 2.4 mph3.9 kmh 30.45 in1031.2 mb 0.00 in0.0 mm 0.00 in/hr0.0 mm/hr 0.00 in0.0 mm
12:44 AM 23.2°F-4.9°C 7.4°F-13.7°C 50% 0.7 mph SE1.1 kmh SE 2.4 mph3.9 kmh 30.45 in1031.2 mb 0.00 in0.0 mm 0.00 in/hr0.0 mm/hr 0.00 in0.0 mm
12:43 AM 23.4°F-4.8°C 7.1°F-13.8°C 49% 0.6 mph SE1.0 kmh SE 2.4 mph3.9 kmh 30.45 in1031.2 mb 0.00 in0.0 mm 0.00 in/hr0.0 mm/hr 0.00 in0.0 mm
12:42 AM 23.4°F-4.8°C 7.1°F-13.8°C 49% 0.8 mph SE1.3 kmh SE 3.2 mph5.1 kmh 30.45 in1031.2 mb 0.00 in0.0 mm 0.00 in/hr0.0 mm/hr 0.00 in0.0 mm
12:41 AM 23.5°F-4.7°C 7.2°F-13.8°C 49% 0.9 mph SE1.4 kmh SE 3.2 mph5.1 kmh 30.45 in1031.2 mb 0.00 in0.0 mm 0.00 in/hr0.0 mm/hr 0.00 in0.0 mm
12:40 AM 23.4°F-4.8°C 7.1°F-13.8°C 49% 0.9 mph SE1.4 kmh SE 3.2 mph5.1 kmh 30.44 in1030.8 mb 0.00 in0.0 mm 0.00 in/hr0.0 mm/hr 0.00 in0.0 mm
12:39 AM 23.4°F-4.8°C 7.1°F-13.8°C 49% 1.0 mph SE1.6 kmh SE 3.2 mph5.1 kmh 30.45 in1031.2 mb 0.00 in0.0 mm 0.00 in/hr0.0 mm/hr 0.00 in0.0 mm
12:38 AM 23.4°F-4.8°C 7.1°F-13.8°C 49% 1.0 mph ESE1.6 kmh ESE 3.2 mph5.1 kmh 30.45 in1031.2 mb 0.00 in0.0 mm 0.00 in/hr0.0 mm/hr 0.00 in0.0 mm
12:37 AM 23.7°F-4.6°C 7.4°F-13.7°C 49% 1.0 mph ESE1.6 kmh ESE 3.2 mph5.1 kmh 30.45 in1031.2 mb 0.00 in0.0 mm 0.00 in/hr0.0 mm/hr 0.00 in0.0 mm
12:36 AM 23.5°F-4.7°C 7.7°F-13.5°C 50% 0.7 mph SE1.1 kmh SE 3.2 mph5.1 kmh 30.45 in1031.2 mb 0.00 in0.0 mm 0.00 in/hr0.0 mm/hr 0.00 in0.0 mm
12:35 AM 23.7°F-4.6°C 7.9°F-13.4°C 50% 0.7 mph SE1.1 kmh SE 3.2 mph5.1 kmh 30.45 in1031.2 mb 0.00 in0.0 mm 0.00 in/hr0.0 mm/hr 0.00 in0.0 mm
12:34 AM 23.9°F-4.5°C 8.0°F-13.3°C 50% 0.9 mph SE1.4 kmh SE 3.2 mph5.1 kmh 30.45 in1031.2 mb 0.00 in0.0 mm 0.00 in/hr0.0 mm/hr 0.00 in0.0 mm
12:33 AM 23.9°F-4.5°C 8.0°F-13.3°C 50% 1.0 mph SE1.6 kmh SE 3.2 mph5.1 kmh 30.45 in1031.2 mb 0.00 in0.0 mm 0.00 in/hr0.0 mm/hr 0.00 in0.0 mm
12:32 AM 23.5°F-4.7°C 7.7°F-13.5°C 50% 1.0 mph SE1.6 kmh SE 3.2 mph5.1 kmh 30.45 in1031.2 mb 0.00 in0.0 mm 0.00 in/hr0.0 mm/hr 0.00 in0.0 mm
12:31 AM 23.5°F-4.7°C 7.7°F-13.5°C 50% 0.9 mph SE1.4 kmh SE 3.2 mph5.1 kmh 30.45 in1031.2 mb 0.00 in0.0 mm 0.00 in/hr0.0 mm/hr 0.00 in0.0 mm
12:30 AM 23.7°F-4.6°C 7.9°F-13.4°C 50% 0.9 mph SE1.4 kmh SE 3.2 mph5.1 kmh 30.45 in1031.2 mb 0.00 in0.0 mm 0.00 in/hr0.0 mm/hr 0.00 in0.0 mm
12:29 AM 23.4°F-4.8°C 7.5°F-13.6°C 50% 1.0 mph SE1.6 kmh SE 3.2 mph5.1 kmh 30.45 in1031.2 mb 0.00 in0.0 mm 0.00 in/hr0.0 mm/hr 0.00 in0.0 mm
12:28 AM 23.5°F-4.7°C 7.7°F-13.5°C 50% 0.9 mph SSE1.4 kmh SSE 3.2 mph5.1 kmh 30.44 in1030.8 mb 0.00 in0.0 mm 0.00 in/hr0.0 mm/hr 0.00 in0.0 mm
12:27 AM 23.7°F-4.6°C 7.9°F-13.4°C 50% 0.8 mph SSE1.3 kmh SSE 3.2 mph5.1 kmh 30.45 in1031.2 mb 0.00 in0.0 mm 0.00 in/hr0.0 mm/hr 0.00 in0.0 mm
12:26 AM 23.7°F-4.6°C 7.9°F-13.4°C 50% 0.9 mph SSE1.4 kmh SSE 3.2 mph5.1 kmh 30.45 in1031.2 mb 0.00 in0.0 mm 0.00 in/hr0.0 mm/hr 0.00 in0.0 mm
12:25 AM 23.9°F-4.5°C 8.0°F-13.3°C 50% 1.1 mph SSE1.8 kmh SSE 3.2 mph5.1 kmh 30.44 in1030.8 mb 0.00 in0.0 mm 0.00 in/hr0.0 mm/hr 0.00 in0.0 mm
12:24 AM 23.4°F-4.8°C 7.5°F-13.6°C 50% 1.0 mph SE1.6 kmh SE 3.2 mph5.1 kmh 30.45 in1031.2 mb 0.00 in0.0 mm 0.00 in/hr0.0 mm/hr 0.00 in0.0 mm
12:23 AM 23.2°F-4.9°C 7.4°F-13.7°C 50% 0.7 mph SE1.1 kmh SE 2.4 mph3.9 kmh 30.45 in1031.2 mb 0.00 in0.0 mm 0.00 in/hr0.0 mm/hr 0.00 in0.0 mm
12:22 AM 23.4°F-4.8°C 7.5°F-13.6°C 50% 0.6 mph SE1.0 kmh SE 2.4 mph3.9 kmh 30.45 in1031.2 mb 0.00 in0.0 mm 0.00 in/hr0.0 mm/hr 0.00 in0.0 mm
12:21 AM 23.5°F-4.7°C 7.7°F-13.5°C 50% 0.6 mph SE1.0 kmh SE 2.4 mph3.9 kmh 30.45 in1031.2 mb 0.00 in0.0 mm 0.00 in/hr0.0 mm/hr 0.00 in0.0 mm
12:20 AM 23.4°F-4.8°C 7.5°F-13.6°C 50% 0.6 mph SE1.0 kmh SE 2.4 mph3.9 kmh 30.45 in1031.2 mb 0.00 in0.0 mm 0.00 in/hr0.0 mm/hr 0.00 in0.0 mm
12:19 AM 23.2°F-4.9°C 7.4°F-13.7°C 50% 0.4 mph SE0.6 kmh SE 2.4 mph3.9 kmh 30.45 in1031.2 mb 0.00 in0.0 mm 0.00 in/hr0.0 mm/hr 0.00 in0.0 mm
12:18 AM 23.2°F-4.9°C 7.4°F-13.7°C 50% 0.6 mph ENE1.0 kmh ENE 2.4 mph3.9 kmh 30.44 in1030.8 mb 0.00 in0.0 mm 0.00 in/hr0.0 mm/hr 0.00 in0.0 mm
12:17 AM 23.4°F-4.8°C 7.5°F-13.6°C 50% 0.8 mph NE1.3 kmh NE 2.4 mph3.9 kmh 30.44 in1030.8 mb 0.00 in0.0 mm 0.00 in/hr0.0 mm/hr 0.00 in0.0 mm
12:16 AM 23.5°F-4.7°C 7.7°F-13.5°C 50% 0.9 mph NE1.4 kmh NE 2.4 mph3.9 kmh 30.45 in1031.2 mb 0.00 in0.0 mm 0.00 in/hr0.0 mm/hr 0.00 in0.0 mm
12:15 AM 23.4°F-4.8°C 7.5°F-13.6°C 50% 0.7 mph NNE1.1 kmh NNE 2.4 mph3.9 kmh 30.44 in1030.8 mb 0.00 in0.0 mm 0.00 in/hr0.0 mm/hr 0.00 in0.0 mm
12:14 AM 23.4°F-4.8°C 7.5°F-13.6°C 50% 0.8 mph N1.3 kmh N 2.4 mph3.9 kmh 30.45 in1031.2 mb 0.00 in0.0 mm 0.00 in/hr0.0 mm/hr 0.00 in0.0 mm
12:13 AM 23.7°F-4.6°C 7.9°F-13.4°C 50% 0.9 mph N1.4 kmh N 2.4 mph3.9 kmh 30.45 in1031.2 mb 0.00 in0.0 mm 0.00 in/hr0.0 mm/hr 0.00 in0.0 mm
12:12 AM 23.9°F-4.5°C 8.0°F-13.3°C 50% 0.9 mph N1.4 kmh N 2.4 mph3.9 kmh 30.44 in1030.8 mb 0.00 in0.0 mm 0.00 in/hr0.0 mm/hr 0.00 in0.0 mm
12:11 AM 23.9°F-4.5°C 8.0°F-13.3°C 50% 1.2 mph NNE1.9 kmh NNE 3.2 mph5.1 kmh 30.45 in1031.2 mb 0.00 in0.0 mm 0.00 in/hr0.0 mm/hr 0.00 in0.0 mm
12:10 AM 23.9°F-4.5°C 8.0°F-13.3°C 50% 1.3 mph NE2.1 kmh NE 3.2 mph5.1 kmh 30.45 in1031.2 mb 0.00 in0.0 mm 0.00 in/hr0.0 mm/hr 0.00 in0.0 mm
12:09 AM 23.9°F-4.5°C 8.0°F-13.3°C 50% 1.3 mph NE2.1 kmh NE 3.2 mph5.1 kmh 30.45 in1031.2 mb 0.00 in0.0 mm 0.00 in/hr0.0 mm/hr 0.00 in0.0 mm
12:08 AM 23.5°F-4.7°C 7.7°F-13.5°C 50% 1.1 mph NE1.8 kmh NE 3.2 mph5.1 kmh 30.44 in1030.8 mb 0.00 in0.0 mm 0.00 in/hr0.0 mm/hr 0.00 in0.0 mm
12:07 AM 23.2°F-4.9°C 7.8°F-13.4°C 51% 0.9 mph ENE1.4 kmh ENE 3.2 mph5.1 kmh 30.44 in1030.8 mb 0.00 in0.0 mm 0.00 in/hr0.0 mm/hr 0.00 in0.0 mm
12:06 AM 23.4°F-4.8°C 8.0°F-13.3°C 51% 0.8 mph ENE1.3 kmh ENE 3.2 mph5.1 kmh 30.44 in1030.8 mb 0.00 in0.0 mm 0.00 in/hr0.0 mm/hr 0.00 in0.0 mm
12:05 AM 23.5°F-4.7°C 7.7°F-13.5°C 50% 0.7 mph ENE1.1 kmh ENE 3.2 mph5.1 kmh 30.45 in1031.2 mb 0.00 in0.0 mm 0.00 in/hr0.0 mm/hr 0.00 in0.0 mm
12:04 AM 23.5°F-4.7°C 7.7°F-13.5°C 50% 0.6 mph E1.0 kmh E 3.2 mph5.1 kmh 30.45 in1031.2 mb 0.00 in0.0 mm 0.00 in/hr0.0 mm/hr 0.00 in0.0 mm
12:03 AM 23.4°F-4.8°C 7.5°F-13.6°C 50% 0.4 mph E0.6 kmh E 3.2 mph5.1 kmh 30.45 in1031.2 mb 0.00 in0.0 mm 0.00 in/hr0.0 mm/hr 0.00 in0.0 mm
12:02 AM 23.5°F-4.7°C 7.7°F-13.5°C 50% 0.5 mph E0.8 kmh E 3.2 mph5.1 kmh 30.45 in1031.2 mb 0.00 in0.0 mm 0.00 in/hr0.0 mm/hr 0.00 in0.0 mm
12:01 AM 23.0°F-5.0°C 7.2°F-13.8°C 50% 0.4 mph NE0.6 kmh NE 2.4 mph3.9 kmh 30.44 in1030.8 mb 0.00 in0.0 mm 0.00 in/hr0.0 mm/hr 0.00 in0.0 mm
12:00 AM 23.0°F-5.0°C 7.6°F-13.6°C 51% 0.3 mph N0.5 kmh N 2.4 mph3.9 kmh 30.45 in1031.2 mb 0.00 in0.0 mm 0.00 in/hr0.0 mm/hr 0.00 in0.0 mm